<?xml version='1.0' encoding='UTF-8'?><gpx version="1.1" creator="JPX - https://github.com/jenetics/jpx" xmlns="http://www.topografix.com/GPX/1/1"><trk><trkseg><trkpt lat="44.6268979" lon="7.9567669"><ele>216.99999999999997</ele><time>2026-03-29T13:39:02.813Z</time></trkpt><trkpt lat="44.6269224" lon="7.9568631"><ele>217.0</ele><time>2026-03-29T13:39:05.759Z</time></trkpt><trkpt lat="44.6269705" lon="7.9569634"><ele>217.0</ele><time>2026-03-29T13:39:08.805Z</time></trkpt><trkpt lat="44.6270391" lon="7.9570461"><ele>217.0</ele><time>2026-03-29T13:39:11.769Z</time></trkpt><trkpt lat="44.6271127" lon="7.9571154"><ele>216.99999999999997</ele><time>2026-03-29T13:39:14.77Z</time></trkpt><trkpt lat="44.6271601" lon="7.9571744"><ele>217.0</ele><time>2026-03-29T13:39:16.76Z</time></trkpt><trkpt lat="44.6272111" lon="7.9572309"><ele>216.99999999999997</ele><time>2026-03-29T13:39:18.752Z</time></trkpt><trkpt lat="44.6272632" lon="7.9572865"><ele>217.0</ele><time>2026-03-29T13:39:20.867Z</time></trkpt><trkpt lat="44.6273327" lon="7.9573539"><ele>217.0</ele><time>2026-03-29T13:39:23.774Z</time></trkpt><trkpt lat="44.6273971" lon="7.9574231"><ele>217.0</ele><time>2026-03-29T13:39:26.76Z</time></trkpt><trkpt lat="44.6274688" lon="7.9574909"><ele>216.99999999999997</ele><time>2026-03-29T13:39:29.818Z</time></trkpt><trkpt lat="44.627553" lon="7.957541"><ele>217.0</ele><time>2026-03-29T13:39:32.798Z</time></trkpt><trkpt lat="44.6276121" lon="7.9575971"><ele>216.99999999999997</ele><time>2026-03-29T13:39:34.945Z</time></trkpt><trkpt lat="44.6276744" lon="7.957657"><ele>217.0</ele><time>2026-03-29T13:39:37.01Z</time></trkpt><trkpt lat="44.6277316" lon="7.9577096"><ele>217.0</ele><time>2026-03-29T13:39:38.777Z</time></trkpt><trkpt lat="44.6277996" lon="7.9577732"><ele>217.0</ele><time>2026-03-29T13:39:40.826Z</time></trkpt><trkpt lat="44.6278637" lon="7.9578352"><ele>216.99999999999997</ele><time>2026-03-29T13:39:42.802Z</time></trkpt><trkpt lat="44.6279292" lon="7.9579008"><ele>217.0</ele><time>2026-03-29T13:39:44.759Z</time></trkpt><trkpt lat="44.6280002" lon="7.9579743"><ele>216.99999999999997</ele><time>2026-03-29T13:39:46.854Z</time></trkpt><trkpt lat="44.6280681" lon="7.9580344"><ele>217.0</ele><time>2026-03-29T13:39:48.803Z</time></trkpt><trkpt lat="44.6281394" lon="7.9581011"><ele>217.0</ele><time>2026-03-29T13:39:50.782Z</time></trkpt><trkpt lat="44.6282097" lon="7.9581707"><ele>217.0</ele><time>2026-03-29T13:39:52.804Z</time></trkpt><trkpt lat="44.6282792" lon="7.9582393"><ele>216.99999999999997</ele><time>2026-03-29T13:39:54.792Z</time></trkpt><trkpt lat="44.6283497" lon="7.9583066"><ele>217.0</ele><time>2026-03-29T13:39:56.79Z</time></trkpt><trkpt lat="44.628424" lon="7.9583728"><ele>216.99999999999997</ele><time>2026-03-29T13:39:58.785Z</time></trkpt><trkpt lat="44.6284962" lon="7.9584436"><ele>217.0</ele><time>2026-03-29T13:40:00.798Z</time></trkpt><trkpt lat="44.6285682" lon="7.9585122"><ele>217.0</ele><time>2026-03-29T13:40:02.798Z</time></trkpt><trkpt lat="44.6286382" lon="7.9585824"><ele>217.0</ele><time>2026-03-29T13:40:04.839Z</time></trkpt><trkpt lat="44.6287109" lon="7.9586499"><ele>216.99999999999997</ele><time>2026-03-29T13:40:06.807Z</time></trkpt><trkpt lat="44.6287852" lon="7.9587207"><ele>217.0</ele><time>2026-03-29T13:40:08.794Z</time></trkpt><trkpt lat="44.6288586" lon="7.9587895"><ele>216.39999999999998</ele><time>2026-03-29T13:40:10.778Z</time></trkpt><trkpt lat="44.628933" lon="7.9588622"><ele>215.79999999999998</ele><time>2026-03-29T13:40:12.761Z</time></trkpt><trkpt lat="44.6290134" lon="7.9589414"><ele>215.2</ele><time>2026-03-29T13:40:14.822Z</time></trkpt><trkpt lat="44.6290854" lon="7.9590112"><ele>214.6</ele><time>2026-03-29T13:40:16.814Z</time></trkpt><trkpt lat="44.6291602" lon="7.959084"><ele>214.0</ele><time>2026-03-29T13:40:18.771Z</time></trkpt><trkpt lat="44.6292413" lon="7.9591615"><ele>214.2</ele><time>2026-03-29T13:40:20.845Z</time></trkpt><trkpt lat="44.6293178" lon="7.959235"><ele>214.39999999999998</ele><time>2026-03-29T13:40:22.779Z</time></trkpt><trkpt lat="44.6293956" lon="7.9593104"><ele>214.6</ele><time>2026-03-29T13:40:24.763Z</time></trkpt><trkpt lat="44.6294768" lon="7.9593875"><ele>214.8</ele><time>2026-03-29T13:40:26.757Z</time></trkpt><trkpt lat="44.62956" lon="7.9594667"><ele>215.0</ele><time>2026-03-29T13:40:28.758Z</time></trkpt><trkpt lat="44.6296415" lon="7.9595463"><ele>214.0</ele><time>2026-03-29T13:40:30.744Z</time></trkpt><trkpt lat="44.6297267" lon="7.9596279"><ele>213.0</ele><time>2026-03-29T13:40:32.859Z</time></trkpt><trkpt lat="44.6298061" lon="7.9596988"><ele>212.0</ele><time>2026-03-29T13:40:34.763Z</time></trkpt><trkpt lat="44.6298865" lon="7.9597795"><ele>211.0</ele><time>2026-03-29T13:40:36.786Z</time></trkpt><trkpt lat="44.6299656" lon="7.9598552"><ele>210.0</ele><time>2026-03-29T13:40:38.744Z</time></trkpt><trkpt lat="44.6300461" lon="7.9599331"><ele>210.0</ele><time>2026-03-29T13:40:40.758Z</time></trkpt><trkpt lat="44.6301275" lon="7.9600142"><ele>210.0</ele><time>2026-03-29T13:40:42.782Z</time></trkpt><trkpt lat="44.6302087" lon="7.9600935"><ele>210.0</ele><time>2026-03-29T13:40:44.771Z</time></trkpt><trkpt lat="44.6302919" lon="7.9601774"><ele>210.0</ele><time>2026-03-29T13:40:46.771Z</time></trkpt><trkpt lat="44.6303769" lon="7.960257"><ele>210.0</ele><time>2026-03-29T13:40:48.758Z</time></trkpt><trkpt lat="44.6304614" lon="7.9603371"><ele>210.0</ele><time>2026-03-29T13:40:50.8Z</time></trkpt><trkpt lat="44.630551" lon="7.9603954"><ele>210.0</ele><time>2026-03-29T13:40:52.742Z</time></trkpt><trkpt lat="44.6306521" lon="7.9604468"><ele>210.0</ele><time>2026-03-29T13:40:54.755Z</time></trkpt><trkpt lat="44.6307534" lon="7.9605172"><ele>210.0</ele><time>2026-03-29T13:40:56.815Z</time></trkpt><trkpt lat="44.6308398" lon="7.9605987"><ele>210.0</ele><time>2026-03-29T13:40:58.745Z</time></trkpt><trkpt lat="44.6309322" lon="7.9606867"><ele>210.0</ele><time>2026-03-29T13:41:00.782Z</time></trkpt><trkpt lat="44.6310202" lon="7.9607743"><ele>210.0</ele><time>2026-03-29T13:41:02.762Z</time></trkpt><trkpt lat="44.6311027" lon="7.9608492"><ele>210.0</ele><time>2026-03-29T13:41:04.769Z</time></trkpt><trkpt lat="44.6311643" lon="7.9608945"><ele>210.0</ele><time>2026-03-29T13:41:44.797Z</time></trkpt><trkpt lat="44.6312313" lon="7.9609515"><ele>210.0</ele><time>2026-03-29T13:41:48.786Z</time></trkpt><trkpt lat="44.6312968" lon="7.9610228"><ele>210.0</ele><time>2026-03-29T13:41:51.773Z</time></trkpt><trkpt lat="44.6313509" lon="7.9610724"><ele>209.83333333333334</ele><time>2026-03-29T13:41:53.813Z</time></trkpt><trkpt lat="44.6314091" lon="7.9611274"><ele>209.66666666666669</ele><time>2026-03-29T13:41:55.802Z</time></trkpt><trkpt lat="44.631479" lon="7.9611816"><ele>209.5</ele><time>2026-03-29T13:41:57.815Z</time></trkpt><trkpt lat="44.6315442" lon="7.9612449"><ele>209.33333333333334</ele><time>2026-03-29T13:41:59.799Z</time></trkpt><trkpt lat="44.6316145" lon="7.9612974"><ele>209.16666666666669</ele><time>2026-03-29T13:42:01.761Z</time></trkpt><trkpt lat="44.6316853" lon="7.9613666"><ele>209.0</ele><time>2026-03-29T13:42:03.784Z</time></trkpt><trkpt lat="44.6317696" lon="7.961414"><ele>209.0</ele><time>2026-03-29T13:42:05.783Z</time></trkpt><trkpt lat="44.6318628" lon="7.9614582"><ele>209.0</ele><time>2026-03-29T13:42:07.824Z</time></trkpt><trkpt lat="44.6319576" lon="7.9614765"><ele>209.0</ele><time>2026-03-29T13:42:09.759Z</time></trkpt><trkpt lat="44.6320639" lon="7.9614646"><ele>209.0</ele><time>2026-03-29T13:42:11.876Z</time></trkpt><trkpt lat="44.6321595" lon="7.9614705"><ele>209.0</ele><time>2026-03-29T13:42:13.788Z</time></trkpt><trkpt lat="44.6322564" lon="7.9614692"><ele>209.50000000000003</ele><time>2026-03-29T13:42:15.773Z</time></trkpt><trkpt lat="44.632351" lon="7.9614712"><ele>210.0</ele><time>2026-03-29T13:42:17.743Z</time></trkpt><trkpt lat="44.6324412" lon="7.9614717"><ele>210.5</ele><time>2026-03-29T13:42:19.786Z</time></trkpt><trkpt lat="44.6325213" lon="7.9614727"><ele>211.0</ele><time>2026-03-29T13:42:21.747Z</time></trkpt><trkpt lat="44.6325956" lon="7.9614781"><ele>211.50000000000003</ele><time>2026-03-29T13:42:23.746Z</time></trkpt><trkpt lat="44.6326621" lon="7.9614826"><ele>212.0</ele><time>2026-03-29T13:42:25.757Z</time></trkpt><trkpt lat="44.6327495" lon="7.9614864"><ele>212.2</ele><time>2026-03-29T13:42:28.757Z</time></trkpt><trkpt lat="44.6328175" lon="7.9614875"><ele>212.39999999999998</ele><time>2026-03-29T13:42:30.784Z</time></trkpt><trkpt lat="44.6328968" lon="7.9614901"><ele>212.60000000000002</ele><time>2026-03-29T13:42:32.809Z</time></trkpt><trkpt lat="44.6329793" lon="7.9614936"><ele>212.8</ele><time>2026-03-29T13:42:34.793Z</time></trkpt><trkpt lat="44.6330645" lon="7.9614979"><ele>213.0</ele><time>2026-03-29T13:42:36.764Z</time></trkpt><trkpt lat="44.6331976" lon="7.9615456"><ele>213.0</ele><time>2026-03-29T13:42:39.754Z</time></trkpt><trkpt lat="44.6332816" lon="7.9616007"><ele>213.0</ele><time>2026-03-29T13:42:41.779Z</time></trkpt><trkpt lat="44.6333543" lon="7.9616699"><ele>213.0</ele><time>2026-03-29T13:42:43.763Z</time></trkpt><trkpt lat="44.6334211" lon="7.9617507"><ele>213.0</ele><time>2026-03-29T13:42:45.794Z</time></trkpt><trkpt lat="44.6334723" lon="7.9618463"><ele>213.0</ele><time>2026-03-29T13:42:47.775Z</time></trkpt><trkpt lat="44.6335258" lon="7.9619489"><ele>213.0</ele><time>2026-03-29T13:42:49.811Z</time></trkpt><trkpt lat="44.6335648" lon="7.9620475"><ele>212.57142857142856</ele><time>2026-03-29T13:42:51.797Z</time></trkpt><trkpt lat="44.6336098" lon="7.9621359"><ele>212.14285714285714</ele><time>2026-03-29T13:42:53.776Z</time></trkpt><trkpt lat="44.6336762" lon="7.9621882"><ele>211.71428571428572</ele><time>2026-03-29T13:42:55.791Z</time></trkpt><trkpt lat="44.6337539" lon="7.9622032"><ele>211.28571428571428</ele><time>2026-03-29T13:42:57.894Z</time></trkpt><trkpt lat="44.6338192" lon="7.9622412"><ele>210.85714285714286</ele><time>2026-03-29T13:42:59.827Z</time></trkpt><trkpt lat="44.6338571" lon="7.9623261"><ele>210.42857142857142</ele><time>2026-03-29T13:43:01.762Z</time></trkpt><trkpt lat="44.6339035" lon="7.9624011"><ele>210.0</ele><time>2026-03-29T13:43:03.784Z</time></trkpt><trkpt lat="44.6339602" lon="7.9624491"><ele>209.83333333333334</ele><time>2026-03-29T13:43:05.74Z</time></trkpt><trkpt lat="44.6340156" lon="7.9624914"><ele>209.66666666666669</ele><time>2026-03-29T13:43:07.812Z</time></trkpt><trkpt lat="44.6340948" lon="7.9625385"><ele>209.5</ele><time>2026-03-29T13:43:10.868Z</time></trkpt><trkpt lat="44.6341725" lon="7.9625493"><ele>209.33333333333334</ele><time>2026-03-29T13:43:14.735Z</time></trkpt><trkpt lat="44.6342454" lon="7.9625654"><ele>209.16666666666669</ele><time>2026-03-29T13:43:17.761Z</time></trkpt><trkpt lat="44.6343172" lon="7.9625936"><ele>209.0</ele><time>2026-03-29T13:43:20.761Z</time></trkpt><trkpt lat="44.6343983" lon="7.962642"><ele>209.00000000000003</ele><time>2026-03-29T13:43:23.76Z</time></trkpt><trkpt lat="44.6344729" lon="7.9627034"><ele>209.0</ele><time>2026-03-29T13:43:26.782Z</time></trkpt><trkpt lat="44.6345286" lon="7.962749"><ele>209.0</ele><time>2026-03-29T13:43:28.784Z</time></trkpt><trkpt lat="44.634607" lon="7.9628052"><ele>209.0</ele><time>2026-03-29T13:43:31.801Z</time></trkpt><trkpt lat="44.6346731" lon="7.9628598"><ele>209.00000000000003</ele><time>2026-03-29T13:43:34.759Z</time></trkpt><trkpt lat="44.6347377" lon="7.9629069"><ele>209.0</ele><time>2026-03-29T13:43:38.781Z</time></trkpt><trkpt lat="44.6348084" lon="7.9629651"><ele>209.0</ele><time>2026-03-29T13:43:41.792Z</time></trkpt><trkpt lat="44.6349083" lon="7.9630281"><ele>209.0</ele><time>2026-03-29T13:43:44.76Z</time></trkpt><trkpt lat="44.6350273" lon="7.9630861"><ele>209.0</ele><time>2026-03-29T13:43:46.764Z</time></trkpt><trkpt lat="44.635106" lon="7.9631054"><ele>209.0</ele><time>2026-03-29T13:43:47.78Z</time></trkpt><trkpt lat="44.6351796" lon="7.9631212"><ele>209.0</ele><time>2026-03-29T13:43:48.762Z</time></trkpt><trkpt lat="44.6352734" lon="7.9631378"><ele>208.79999999999998</ele><time>2026-03-29T13:43:49.772Z</time></trkpt><trkpt lat="44.6353467" lon="7.9631297"><ele>208.6</ele><time>2026-03-29T13:43:50.731Z</time></trkpt><trkpt lat="44.6354356" lon="7.963108"><ele>208.4</ele><time>2026-03-29T13:43:51.874Z</time></trkpt><trkpt lat="44.6355125" lon="7.9630848"><ele>208.2</ele><time>2026-03-29T13:43:52.858Z</time></trkpt><trkpt lat="44.6356547" lon="7.963016"><ele>208.0</ele><time>2026-03-29T13:43:54.775Z</time></trkpt><trkpt lat="44.6357259" lon="7.9629598"><ele>208.0</ele><time>2026-03-29T13:43:55.873Z</time></trkpt><trkpt lat="44.6358366" lon="7.9628513"><ele>208.0</ele><time>2026-03-29T13:43:57.807Z</time></trkpt><trkpt lat="44.635944" lon="7.96276"><ele>208.0</ele><time>2026-03-29T13:43:59.875Z</time></trkpt><trkpt lat="44.6360338" lon="7.9626853"><ele>208.0</ele><time>2026-03-29T13:44:01.884Z</time></trkpt><trkpt lat="44.6361047" lon="7.9626306"><ele>208.0</ele><time>2026-03-29T13:44:03.757Z</time></trkpt><trkpt lat="44.636168" lon="7.962583"><ele>208.66666666666666</ele><time>2026-03-29T13:44:05.798Z</time></trkpt><trkpt lat="44.6362395" lon="7.9625225"><ele>209.33333333333331</ele><time>2026-03-29T13:44:08.858Z</time></trkpt><trkpt lat="44.6363064" lon="7.9624961"><ele>210.0</ele><time>2026-03-29T13:44:11.802Z</time></trkpt><trkpt lat="44.6363836" lon="7.9624704"><ele>210.66666666666669</ele><time>2026-03-29T13:44:14.779Z</time></trkpt><trkpt lat="44.6364714" lon="7.9624503"><ele>211.33333333333334</ele><time>2026-03-29T13:44:17.808Z</time></trkpt><trkpt lat="44.6365535" lon="7.9624406"><ele>212.0</ele><time>2026-03-29T13:44:20.776Z</time></trkpt><trkpt lat="44.6366405" lon="7.9624393"><ele>212.0</ele><time>2026-03-29T13:44:23.765Z</time></trkpt><trkpt lat="44.6367033" lon="7.9624495"><ele>212.0</ele><time>2026-03-29T13:44:25.74Z</time></trkpt><trkpt lat="44.6367816" lon="7.96245"><ele>212.0</ele><time>2026-03-29T13:44:28.778Z</time></trkpt><trkpt lat="44.6368568" lon="7.962427"><ele>212.0</ele><time>2026-03-29T13:44:31.788Z</time></trkpt><trkpt lat="44.6369254" lon="7.9624349"><ele>212.0</ele><time>2026-03-29T13:44:34.758Z</time></trkpt><trkpt lat="44.6369869" lon="7.9624732"><ele>212.0</ele><time>2026-03-29T13:44:37.753Z</time></trkpt><trkpt lat="44.6370531" lon="7.9624771"><ele>212.0</ele><time>2026-03-29T13:44:40.752Z</time></trkpt><trkpt lat="44.6371244" lon="7.9624768"><ele>212.57142857142858</ele><time>2026-03-29T13:44:43.75Z</time></trkpt><trkpt lat="44.6371967" lon="7.9624933"><ele>213.14285714285714</ele><time>2026-03-29T13:44:46.768Z</time></trkpt><trkpt lat="44.6372738" lon="7.962502"><ele>213.71428571428572</ele><time>2026-03-29T13:44:49.788Z</time></trkpt><trkpt lat="44.6373515" lon="7.9625073"><ele>214.28571428571428</ele><time>2026-03-29T13:44:52.746Z</time></trkpt><trkpt lat="44.6374206" lon="7.9625122"><ele>214.85714285714283</ele><time>2026-03-29T13:44:55.791Z</time></trkpt><trkpt lat="44.6374871" lon="7.9625071"><ele>215.42857142857142</ele><time>2026-03-29T13:44:58.769Z</time></trkpt><trkpt lat="44.6375534" lon="7.9625015"><ele>216.0</ele><time>2026-03-29T13:45:01.76Z</time></trkpt><trkpt lat="44.6376284" lon="7.9624881"><ele>216.0</ele><time>2026-03-29T13:45:04.917Z</time></trkpt><trkpt lat="44.6377074" lon="7.9624633"><ele>216.0</ele><time>2026-03-29T13:45:08.768Z</time></trkpt><trkpt lat="44.6377801" lon="7.9624361"><ele>216.0</ele><time>2026-03-29T13:45:11.754Z</time></trkpt><trkpt lat="44.6378517" lon="7.962396"><ele>216.0</ele><time>2026-03-29T13:45:14.784Z</time></trkpt><trkpt lat="44.6379416" lon="7.9623415"><ele>216.0</ele><time>2026-03-29T13:45:18.758Z</time></trkpt><trkpt lat="44.6380165" lon="7.9623049"><ele>216.0</ele><time>2026-03-29T13:45:21.776Z</time></trkpt><trkpt lat="44.6380842" lon="7.9622861"><ele>216.66666666666666</ele><time>2026-03-29T13:45:24.761Z</time></trkpt><trkpt lat="44.6381579" lon="7.9622995"><ele>217.33333333333331</ele><time>2026-03-29T13:45:27.786Z</time></trkpt><trkpt lat="44.6382325" lon="7.9623117"><ele>218.0</ele><time>2026-03-29T13:45:30.899Z</time></trkpt><trkpt lat="44.6383069" lon="7.96232"><ele>218.66666666666666</ele><time>2026-03-29T13:45:33.779Z</time></trkpt><trkpt lat="44.6383842" lon="7.9623202"><ele>219.33333333333331</ele><time>2026-03-29T13:45:36.76Z</time></trkpt><trkpt lat="44.638458" lon="7.9623162"><ele>220.0</ele><time>2026-03-29T13:45:39.789Z</time></trkpt><trkpt lat="44.6385363" lon="7.9622973"><ele>219.99999999999997</ele><time>2026-03-29T13:45:42.795Z</time></trkpt><trkpt lat="44.6386121" lon="7.9622695"><ele>220.0</ele><time>2026-03-29T13:45:45.787Z</time></trkpt><trkpt lat="44.6386771" lon="7.9622333"><ele>220.0</ele><time>2026-03-29T13:45:48.778Z</time></trkpt><trkpt lat="44.6387453" lon="7.9621926"><ele>220.0</ele><time>2026-03-29T13:45:51.802Z</time></trkpt><trkpt lat="44.6388213" lon="7.9621484"><ele>219.99999999999997</ele><time>2026-03-29T13:45:54.789Z</time></trkpt><trkpt lat="44.6388917" lon="7.9621169"><ele>220.0</ele><time>2026-03-29T13:45:57.765Z</time></trkpt><trkpt lat="44.638971" lon="7.9621001"><ele>221.49999999999997</ele><time>2026-03-29T13:46:00.785Z</time></trkpt><trkpt lat="44.6390762" lon="7.9621357"><ele>223.0</ele><time>2026-03-29T13:46:04.762Z</time></trkpt><trkpt lat="44.6391406" lon="7.9621965"><ele>224.5</ele><time>2026-03-29T13:46:07.807Z</time></trkpt><trkpt lat="44.6391972" lon="7.9622788"><ele>226.0</ele><time>2026-03-29T13:46:10.817Z</time></trkpt><trkpt lat="44.6392341" lon="7.9623822"><ele>227.49999999999997</ele><time>2026-03-29T13:46:13.824Z</time></trkpt><trkpt lat="44.6392382" lon="7.9624985"><ele>229.0</ele><time>2026-03-29T13:46:17.032Z</time></trkpt><trkpt lat="44.6392215" lon="7.9625951"><ele>229.66666666666666</ele><time>2026-03-29T13:46:19.771Z</time></trkpt><trkpt lat="44.6391894" lon="7.9626957"><ele>230.33333333333331</ele><time>2026-03-29T13:46:22.864Z</time></trkpt><trkpt lat="44.6391535" lon="7.9627917"><ele>231.0</ele><time>2026-03-29T13:46:25.773Z</time></trkpt><trkpt lat="44.6391095" lon="7.9628961"><ele>231.66666666666669</ele><time>2026-03-29T13:46:28.787Z</time></trkpt><trkpt lat="44.6390704" lon="7.9630057"><ele>232.33333333333334</ele><time>2026-03-29T13:46:31.757Z</time></trkpt><trkpt lat="44.6390265" lon="7.9631058"><ele>233.0</ele><time>2026-03-29T13:46:34.782Z</time></trkpt><trkpt lat="44.6389906" lon="7.9632094"><ele>233.00000000000003</ele><time>2026-03-29T13:46:37.782Z</time></trkpt><trkpt lat="44.6389566" lon="7.9633099"><ele>233.0</ele><time>2026-03-29T13:46:40.907Z</time></trkpt><trkpt lat="44.638965" lon="7.9634234"><ele>233.0</ele><time>2026-03-29T13:46:43.78Z</time></trkpt><trkpt lat="44.63899" lon="7.9635233"><ele>233.0</ele><time>2026-03-29T13:46:46.791Z</time></trkpt><trkpt lat="44.6390174" lon="7.9636112"><ele>233.00000000000003</ele><time>2026-03-29T13:46:49.775Z</time></trkpt><trkpt lat="44.6390317" lon="7.9637257"><ele>233.0</ele><time>2026-03-29T13:46:53.784Z</time></trkpt><trkpt lat="44.6390072" lon="7.963819"><ele>232.50000000000003</ele><time>2026-03-29T13:46:57.813Z</time></trkpt><trkpt lat="44.6390125" lon="7.9639175"><ele>232.0</ele><time>2026-03-29T13:47:02.808Z</time></trkpt><trkpt lat="44.6390048" lon="7.9640416"><ele>231.5</ele><time>2026-03-29T13:47:43.784Z</time></trkpt><trkpt lat="44.6390158" lon="7.9641875"><ele>231.0</ele><time>2026-03-29T13:47:45.803Z</time></trkpt><trkpt lat="44.6390284" lon="7.9642813"><ele>230.50000000000003</ele><time>2026-03-29T13:47:46.83Z</time></trkpt><trkpt lat="44.6390377" lon="7.9643855"><ele>230.0</ele><time>2026-03-29T13:47:47.771Z</time></trkpt><trkpt lat="44.6390453" lon="7.964509"><ele>228.66666666666669</ele><time>2026-03-29T13:47:48.786Z</time></trkpt><trkpt lat="44.6390541" lon="7.9646253"><ele>227.33333333333334</ele><time>2026-03-29T13:47:49.796Z</time></trkpt><trkpt lat="44.6390691" lon="7.9647364"><ele>226.0</ele><time>2026-03-29T13:47:50.772Z</time></trkpt><trkpt lat="44.6390878" lon="7.9648517"><ele>224.66666666666669</ele><time>2026-03-29T13:47:51.762Z</time></trkpt><trkpt lat="44.6391143" lon="7.9649722"><ele>223.33333333333334</ele><time>2026-03-29T13:47:52.775Z</time></trkpt><trkpt lat="44.6391492" lon="7.9650967"><ele>222.0</ele><time>2026-03-29T13:47:53.796Z</time></trkpt><trkpt lat="44.6391888" lon="7.9652202"><ele>220.8</ele><time>2026-03-29T13:47:54.766Z</time></trkpt><trkpt lat="44.6392337" lon="7.9653476"><ele>219.6</ele><time>2026-03-29T13:47:55.79Z</time></trkpt><trkpt lat="44.6392715" lon="7.9654704"><ele>218.40000000000003</ele><time>2026-03-29T13:47:56.76Z</time></trkpt><trkpt lat="44.6393147" lon="7.9656114"><ele>217.20000000000002</ele><time>2026-03-29T13:47:57.813Z</time></trkpt><trkpt lat="44.6393599" lon="7.9657474"><ele>216.0</ele><time>2026-03-29T13:47:58.818Z</time></trkpt><trkpt lat="44.6393933" lon="7.9658566"><ele>214.66666666666666</ele><time>2026-03-29T13:47:59.794Z</time></trkpt><trkpt lat="44.6394188" lon="7.9659422"><ele>213.33333333333331</ele><time>2026-03-29T13:48:00.789Z</time></trkpt><trkpt lat="44.6394775" lon="7.9660151"><ele>212.0</ele><time>2026-03-29T13:48:02.814Z</time></trkpt><trkpt lat="44.6395578" lon="7.9659923"><ele>210.66666666666666</ele><time>2026-03-29T13:48:05.036Z</time></trkpt><trkpt lat="44.6396427" lon="7.9660367"><ele>209.33333333333331</ele><time>2026-03-29T13:48:06.967Z</time></trkpt><trkpt lat="44.6397096" lon="7.966103"><ele>208.0</ele><time>2026-03-29T13:48:08.788Z</time></trkpt><trkpt lat="44.6397911" lon="7.9661626"><ele>208.0</ele><time>2026-03-29T13:48:10.836Z</time></trkpt><trkpt lat="44.6398701" lon="7.9662357"><ele>208.0</ele><time>2026-03-29T13:48:12.81Z</time></trkpt><trkpt lat="44.6399327" lon="7.9663265"><ele>208.0</ele><time>2026-03-29T13:48:14.88Z</time></trkpt><trkpt lat="44.6399871" lon="7.9664215"><ele>208.0</ele><time>2026-03-29T13:48:16.859Z</time></trkpt><trkpt lat="44.6400419" lon="7.9665303"><ele>208.0</ele><time>2026-03-29T13:48:18.9Z</time></trkpt><trkpt lat="44.6400986" lon="7.9666361"><ele>207.5</ele><time>2026-03-29T13:48:20.799Z</time></trkpt><trkpt lat="44.6401625" lon="7.9667539"><ele>207.0</ele><time>2026-03-29T13:48:22.777Z</time></trkpt><trkpt lat="44.6402319" lon="7.9668772"><ele>206.5</ele><time>2026-03-29T13:48:24.77Z</time></trkpt><trkpt lat="44.6402992" lon="7.9670144"><ele>206.0</ele><time>2026-03-29T13:48:26.804Z</time></trkpt><trkpt lat="44.6403706" lon="7.967145"><ele>206.0</ele><time>2026-03-29T13:48:28.807Z</time></trkpt><trkpt lat="44.640437" lon="7.9672777"><ele>206.0</ele><time>2026-03-29T13:48:30.794Z</time></trkpt><trkpt lat="44.6405033" lon="7.9674039"><ele>206.0</ele><time>2026-03-29T13:48:32.792Z</time></trkpt><trkpt lat="44.6405664" lon="7.9675159"><ele>206.0</ele><time>2026-03-29T13:48:34.82Z</time></trkpt><trkpt lat="44.6406026" lon="7.9676013"><ele>206.0</ele><time>2026-03-29T13:48:36.785Z</time></trkpt><trkpt lat="44.6405602" lon="7.9677065"><ele>205.83333333333334</ele><time>2026-03-29T13:48:40.796Z</time></trkpt><trkpt lat="44.640493" lon="7.9677915"><ele>205.66666666666669</ele><time>2026-03-29T13:48:43.831Z</time></trkpt><trkpt lat="44.6404281" lon="7.9678647"><ele>205.5</ele><time>2026-03-29T13:48:46.788Z</time></trkpt><trkpt lat="44.6403757" lon="7.9679554"><ele>205.33333333333331</ele><time>2026-03-29T13:48:49.94Z</time></trkpt><trkpt lat="44.6403216" lon="7.9680399"><ele>205.16666666666666</ele><time>2026-03-29T13:48:52.849Z</time></trkpt><trkpt lat="44.6402692" lon="7.9681109"><ele>205.0</ele><time>2026-03-29T13:48:55.817Z</time></trkpt><trkpt lat="44.6402128" lon="7.9682017"><ele>204.66666666666666</ele><time>2026-03-29T13:48:59.766Z</time></trkpt><trkpt lat="44.6401931" lon="7.9682952"><ele>204.33333333333331</ele><time>2026-03-29T13:49:04.821Z</time></trkpt><trkpt lat="44.6402451" lon="7.9683885"><ele>204.0</ele><time>2026-03-29T13:49:08.796Z</time></trkpt><trkpt lat="44.6402809" lon="7.968485"><ele>203.66666666666669</ele><time>2026-03-29T13:49:11.754Z</time></trkpt><trkpt lat="44.640309" lon="7.9686092"><ele>203.33333333333334</ele><time>2026-03-29T13:49:14.765Z</time></trkpt><trkpt lat="44.6403376" lon="7.96869"><ele>203.0</ele><time>2026-03-29T13:49:16.789Z</time></trkpt><trkpt lat="44.6403755" lon="7.9687674"><ele>203.00000000000003</ele><time>2026-03-29T13:49:18.779Z</time></trkpt><trkpt lat="44.6404315" lon="7.9688267"><ele>203.0</ele><time>2026-03-29T13:49:20.917Z</time></trkpt><trkpt lat="44.6405127" lon="7.9689061"><ele>203.0</ele><time>2026-03-29T13:49:23.813Z</time></trkpt><trkpt lat="44.6405897" lon="7.9690059"><ele>203.0</ele><time>2026-03-29T13:49:26.78Z</time></trkpt><trkpt lat="44.6406479" lon="7.9690764"><ele>203.00000000000003</ele><time>2026-03-29T13:49:28.772Z</time></trkpt><trkpt lat="44.6407054" lon="7.9691409"><ele>203.0</ele><time>2026-03-29T13:49:30.793Z</time></trkpt><trkpt lat="44.6407683" lon="7.9691923"><ele>202.66666666666669</ele><time>2026-03-29T13:49:32.839Z</time></trkpt><trkpt lat="44.6408223" lon="7.9692525"><ele>202.33333333333334</ele><time>2026-03-29T13:49:34.853Z</time></trkpt><trkpt lat="44.6408709" lon="7.9693114"><ele>202.0</ele><time>2026-03-29T13:49:36.793Z</time></trkpt><trkpt lat="44.6409263" lon="7.9693666"><ele>201.66666666666669</ele><time>2026-03-29T13:49:38.785Z</time></trkpt><trkpt lat="44.6409841" lon="7.969427"><ele>201.33333333333334</ele><time>2026-03-29T13:49:40.772Z</time></trkpt><trkpt lat="44.6410818" lon="7.9695086"><ele>201.0</ele><time>2026-03-29T13:49:43.792Z</time></trkpt><trkpt lat="44.6411527" lon="7.9695731"><ele>200.8</ele><time>2026-03-29T13:49:45.804Z</time></trkpt><trkpt lat="44.6412211" lon="7.9696826"><ele>200.60000000000002</ele><time>2026-03-29T13:49:47.933Z</time></trkpt><trkpt lat="44.6412909" lon="7.9697681"><ele>200.4</ele><time>2026-03-29T13:49:49.83Z</time></trkpt><trkpt lat="44.6413597" lon="7.9698367"><ele>200.2</ele><time>2026-03-29T13:49:51.777Z</time></trkpt><trkpt lat="44.6414347" lon="7.9699202"><ele>200.0</ele><time>2026-03-29T13:49:53.798Z</time></trkpt><trkpt lat="44.6415052" lon="7.9699902"><ele>199.6</ele><time>2026-03-29T13:49:55.794Z</time></trkpt><trkpt lat="44.6415814" lon="7.9700535"><ele>199.2</ele><time>2026-03-29T13:49:57.815Z</time></trkpt><trkpt lat="44.6416508" lon="7.9701337"><ele>198.8</ele><time>2026-03-29T13:49:59.77Z</time></trkpt><trkpt lat="44.6417289" lon="7.9702139"><ele>198.4</ele><time>2026-03-29T13:50:01.797Z</time></trkpt><trkpt lat="44.6418023" lon="7.9702952"><ele>198.0</ele><time>2026-03-29T13:50:03.768Z</time></trkpt><trkpt lat="44.6418846" lon="7.9703735"><ele>198.0</ele><time>2026-03-29T13:50:05.821Z</time></trkpt><trkpt lat="44.6419546" lon="7.9704608"><ele>198.0</ele><time>2026-03-29T13:50:07.889Z</time></trkpt><trkpt lat="44.6420015" lon="7.9705553"><ele>198.0</ele><time>2026-03-29T13:50:09.765Z</time></trkpt><trkpt lat="44.642036" lon="7.9706774"><ele>198.0</ele><time>2026-03-29T13:50:11.858Z</time></trkpt><trkpt lat="44.6420427" lon="7.9708007"><ele>198.0</ele><time>2026-03-29T13:50:13.81Z</time></trkpt><trkpt lat="44.642026" lon="7.9709228"><ele>198.0</ele><time>2026-03-29T13:50:15.785Z</time></trkpt><trkpt lat="44.6419885" lon="7.9710329"><ele>198.16666666666666</ele><time>2026-03-29T13:50:17.813Z</time></trkpt><trkpt lat="44.6419498" lon="7.9711444"><ele>198.33333333333331</ele><time>2026-03-29T13:50:19.797Z</time></trkpt><trkpt lat="44.6419128" lon="7.9712563"><ele>198.5</ele><time>2026-03-29T13:50:21.812Z</time></trkpt><trkpt lat="44.6418745" lon="7.9713663"><ele>198.66666666666666</ele><time>2026-03-29T13:50:23.89Z</time></trkpt><trkpt lat="44.6418365" lon="7.9714693"><ele>198.83333333333331</ele><time>2026-03-29T13:50:25.755Z</time></trkpt><trkpt lat="44.6417988" lon="7.9715797"><ele>199.0</ele><time>2026-03-29T13:50:27.831Z</time></trkpt><trkpt lat="44.6417614" lon="7.9716845"><ele>198.99999999999997</ele><time>2026-03-29T13:50:29.824Z</time></trkpt><trkpt lat="44.6417223" lon="7.9717944"><ele>199.0</ele><time>2026-03-29T13:50:31.877Z</time></trkpt><trkpt lat="44.6416847" lon="7.9718937"><ele>199.0</ele><time>2026-03-29T13:50:33.783Z</time></trkpt><trkpt lat="44.6416522" lon="7.9719912"><ele>199.0</ele><time>2026-03-29T13:50:35.772Z</time></trkpt><trkpt lat="44.6416141" lon="7.9720851"><ele>198.99999999999997</ele><time>2026-03-29T13:50:37.765Z</time></trkpt><trkpt lat="44.6415824" lon="7.9721888"><ele>199.0</ele><time>2026-03-29T13:50:39.795Z</time></trkpt><trkpt lat="44.641548" lon="7.9722842"><ele>198.99999999999997</ele><time>2026-03-29T13:50:41.788Z</time></trkpt><trkpt lat="44.641511" lon="7.9723864"><ele>199.0</ele><time>2026-03-29T13:50:43.816Z</time></trkpt><trkpt lat="44.6414759" lon="7.9724793"><ele>199.0</ele><time>2026-03-29T13:50:45.773Z</time></trkpt><trkpt lat="44.6414324" lon="7.9725928"><ele>199.0</ele><time>2026-03-29T13:50:47.791Z</time></trkpt><trkpt lat="44.641397" lon="7.9726963"><ele>198.99999999999997</ele><time>2026-03-29T13:50:49.79Z</time></trkpt><trkpt lat="44.6413619" lon="7.9728075"><ele>199.0</ele><time>2026-03-29T13:50:51.797Z</time></trkpt><trkpt lat="44.6413199" lon="7.9729483"><ele>198.99999999999997</ele><time>2026-03-29T13:50:54.787Z</time></trkpt><trkpt lat="44.6413073" lon="7.9730522"><ele>199.0</ele><time>2026-03-29T13:50:58.811Z</time></trkpt><trkpt lat="44.6413348" lon="7.9731771"><ele>199.0</ele><time>2026-03-29T13:51:01.781Z</time></trkpt><trkpt lat="44.6414068" lon="7.9732241"><ele>199.0</ele><time>2026-03-29T13:51:04.025Z</time></trkpt><trkpt lat="44.6414718" lon="7.9732918"><ele>198.99999999999997</ele><time>2026-03-29T13:51:05.802Z</time></trkpt><trkpt lat="44.6415483" lon="7.9733665"><ele>199.0</ele><time>2026-03-29T13:51:07.798Z</time></trkpt><trkpt lat="44.6416302" lon="7.9734299"><ele>199.0</ele><time>2026-03-29T13:51:09.776Z</time></trkpt><trkpt lat="44.6417134" lon="7.9734964"><ele>199.0</ele><time>2026-03-29T13:51:11.787Z</time></trkpt><trkpt lat="44.6417969" lon="7.9735765"><ele>199.0</ele><time>2026-03-29T13:51:13.808Z</time></trkpt><trkpt lat="44.6418893" lon="7.9736529"><ele>199.0</ele><time>2026-03-29T13:51:15.824Z</time></trkpt><trkpt lat="44.6419764" lon="7.9737247"><ele>199.0</ele><time>2026-03-29T13:51:17.784Z</time></trkpt><trkpt lat="44.6420671" lon="7.9737928"><ele>199.0</ele><time>2026-03-29T13:51:19.766Z</time></trkpt><trkpt lat="44.6421683" lon="7.9738668"><ele>199.0</ele><time>2026-03-29T13:51:21.816Z</time></trkpt><trkpt lat="44.6422578" lon="7.9739358"><ele>199.0</ele><time>2026-03-29T13:51:23.778Z</time></trkpt><trkpt lat="44.642348" lon="7.9740068"><ele>199.0</ele><time>2026-03-29T13:51:25.77Z</time></trkpt><trkpt lat="44.6424367" lon="7.97408"><ele>199.0</ele><time>2026-03-29T13:51:27.794Z</time></trkpt><trkpt lat="44.6425216" lon="7.9741423"><ele>199.0</ele><time>2026-03-29T13:51:29.769Z</time></trkpt><trkpt lat="44.6426032" lon="7.9742085"><ele>199.0</ele><time>2026-03-29T13:51:31.77Z</time></trkpt><trkpt lat="44.6426817" lon="7.9742682"><ele>199.0</ele><time>2026-03-29T13:51:33.76Z</time></trkpt><trkpt lat="44.6427572" lon="7.9743339"><ele>199.0</ele><time>2026-03-29T13:51:35.779Z</time></trkpt><trkpt lat="44.6428387" lon="7.974399"><ele>199.0</ele><time>2026-03-29T13:51:37.771Z</time></trkpt><trkpt lat="44.642925" lon="7.9744713"><ele>199.0</ele><time>2026-03-29T13:51:39.768Z</time></trkpt><trkpt lat="44.6430597" lon="7.9745771"><ele>199.0</ele><time>2026-03-29T13:51:42.789Z</time></trkpt><trkpt lat="44.6431474" lon="7.9746527"><ele>199.0</ele><time>2026-03-29T13:51:44.77Z</time></trkpt><trkpt lat="44.6432355" lon="7.9747278"><ele>199.0</ele><time>2026-03-29T13:51:46.781Z</time></trkpt><trkpt lat="44.6433184" lon="7.9747892"><ele>199.0</ele><time>2026-03-29T13:51:48.77Z</time></trkpt><trkpt lat="44.6434054" lon="7.9748589"><ele>199.0</ele><time>2026-03-29T13:51:50.788Z</time></trkpt><trkpt lat="44.6434865" lon="7.9749239"><ele>199.0</ele><time>2026-03-29T13:51:52.792Z</time></trkpt><trkpt lat="44.6435666" lon="7.9749874"><ele>199.0</ele><time>2026-03-29T13:51:54.81Z</time></trkpt><trkpt lat="44.6436481" lon="7.9750491"><ele>199.0</ele><time>2026-03-29T13:51:56.785Z</time></trkpt><trkpt lat="44.6437317" lon="7.9751146"><ele>199.16666666666666</ele><time>2026-03-29T13:51:58.779Z</time></trkpt><trkpt lat="44.6438186" lon="7.9751628"><ele>199.33333333333331</ele><time>2026-03-29T13:52:00.757Z</time></trkpt><trkpt lat="44.6439009" lon="7.9752136"><ele>199.5</ele><time>2026-03-29T13:52:02.794Z</time></trkpt><trkpt lat="44.6439735" lon="7.9752687"><ele>199.66666666666669</ele><time>2026-03-29T13:52:04.818Z</time></trkpt><trkpt lat="44.644044" lon="7.9753302"><ele>199.83333333333334</ele><time>2026-03-29T13:52:06.793Z</time></trkpt><trkpt lat="44.64411" lon="7.9753826"><ele>200.0</ele><time>2026-03-29T13:52:08.782Z</time></trkpt><trkpt lat="44.6441814" lon="7.9754456"><ele>200.00000000000003</ele><time>2026-03-29T13:52:10.796Z</time></trkpt><trkpt lat="44.6442542" lon="7.9755064"><ele>200.0</ele><time>2026-03-29T13:52:12.82Z</time></trkpt><trkpt lat="44.6443219" lon="7.9755722"><ele>200.0</ele><time>2026-03-29T13:52:14.75Z</time></trkpt><trkpt lat="44.6444037" lon="7.9756435"><ele>200.0</ele><time>2026-03-29T13:52:16.783Z</time></trkpt><trkpt lat="44.6444826" lon="7.9757031"><ele>200.00000000000003</ele><time>2026-03-29T13:52:18.76Z</time></trkpt><trkpt lat="44.6445602" lon="7.9757554"><ele>200.0</ele><time>2026-03-29T13:52:20.776Z</time></trkpt><trkpt lat="44.6446379" lon="7.9758142"><ele>199.83333333333334</ele><time>2026-03-29T13:52:22.758Z</time></trkpt><trkpt lat="44.6447157" lon="7.9758759"><ele>199.66666666666669</ele><time>2026-03-29T13:52:24.77Z</time></trkpt><trkpt lat="44.6447965" lon="7.9759424"><ele>199.5</ele><time>2026-03-29T13:52:26.778Z</time></trkpt><trkpt lat="44.644872" lon="7.976008"><ele>199.33333333333331</ele><time>2026-03-29T13:52:28.787Z</time></trkpt><trkpt lat="44.6449411" lon="7.9760684"><ele>199.16666666666666</ele><time>2026-03-29T13:52:30.75Z</time></trkpt><trkpt lat="44.6450106" lon="7.9761266"><ele>199.0</ele><time>2026-03-29T13:52:32.792Z</time></trkpt><trkpt lat="44.6450774" lon="7.9761809"><ele>198.99999999999997</ele><time>2026-03-29T13:52:34.778Z</time></trkpt><trkpt lat="44.6451425" lon="7.9762363"><ele>199.0</ele><time>2026-03-29T13:52:36.813Z</time></trkpt><trkpt lat="44.6452023" lon="7.9762919"><ele>199.0</ele><time>2026-03-29T13:52:38.788Z</time></trkpt><trkpt lat="44.6452622" lon="7.97635"><ele>199.0</ele><time>2026-03-29T13:52:40.817Z</time></trkpt><trkpt lat="44.6453339" lon="7.9764136"><ele>198.99999999999997</ele><time>2026-03-29T13:52:42.794Z</time></trkpt><trkpt lat="44.6454074" lon="7.9765069"><ele>199.0</ele><time>2026-03-29T13:52:44.797Z</time></trkpt><trkpt lat="44.6454827" lon="7.9765947"><ele>198.99999999999997</ele><time>2026-03-29T13:52:46.798Z</time></trkpt><trkpt lat="44.6455514" lon="7.9766833"><ele>199.0</ele><time>2026-03-29T13:52:48.783Z</time></trkpt><trkpt lat="44.6456209" lon="7.9767706"><ele>199.0</ele><time>2026-03-29T13:52:50.797Z</time></trkpt><trkpt lat="44.645687" lon="7.9768519"><ele>199.0</ele><time>2026-03-29T13:52:52.818Z</time></trkpt><trkpt lat="44.6457527" lon="7.9769398"><ele>198.99999999999997</ele><time>2026-03-29T13:52:54.819Z</time></trkpt><trkpt lat="44.6458117" lon="7.977019"><ele>199.0</ele><time>2026-03-29T13:52:56.813Z</time></trkpt><trkpt lat="44.6458728" lon="7.9771018"><ele>199.0</ele><time>2026-03-29T13:52:58.793Z</time></trkpt><trkpt lat="44.6459742" lon="7.9772511"><ele>199.0</ele><time>2026-03-29T13:53:01.817Z</time></trkpt><trkpt lat="44.6460383" lon="7.9773429"><ele>199.0</ele><time>2026-03-29T13:53:03.789Z</time></trkpt><trkpt lat="44.6461052" lon="7.9774266"><ele>199.0</ele><time>2026-03-29T13:53:05.792Z</time></trkpt><trkpt lat="44.6462051" lon="7.9775541"><ele>199.14285714285714</ele><time>2026-03-29T13:53:08.929Z</time></trkpt><trkpt lat="44.6462661" lon="7.9776347"><ele>199.28571428571428</ele><time>2026-03-29T13:53:10.826Z</time></trkpt><trkpt lat="44.6463244" lon="7.977716"><ele>199.42857142857144</ele><time>2026-03-29T13:53:12.81Z</time></trkpt><trkpt lat="44.6463742" lon="7.9777845"><ele>199.57142857142856</ele><time>2026-03-29T13:53:14.823Z</time></trkpt><trkpt lat="44.6464092" lon="7.9778589"><ele>199.71428571428572</ele><time>2026-03-29T13:54:48.843Z</time></trkpt><trkpt lat="44.6464704" lon="7.9779155"><ele>199.85714285714286</ele><time>2026-03-29T13:54:52.806Z</time></trkpt><trkpt lat="44.6465215" lon="7.9779873"><ele>200.0</ele><time>2026-03-29T13:54:55.807Z</time></trkpt><trkpt lat="44.6465561" lon="7.978066"><ele>200.0</ele><time>2026-03-29T13:54:57.872Z</time></trkpt><trkpt lat="44.6466053" lon="7.9781458"><ele>200.0</ele><time>2026-03-29T13:54:59.788Z</time></trkpt><trkpt lat="44.6466769" lon="7.9782167"><ele>200.0</ele><time>2026-03-29T13:55:01.809Z</time></trkpt><trkpt lat="44.6467625" lon="7.9782792"><ele>200.0</ele><time>2026-03-29T13:55:03.796Z</time></trkpt><trkpt lat="44.6468639" lon="7.9783403"><ele>200.0</ele><time>2026-03-29T13:55:05.79Z</time></trkpt><trkpt lat="44.6469744" lon="7.9784066"><ele>200.42857142857144</ele><time>2026-03-29T13:55:07.81Z</time></trkpt><trkpt lat="44.6470343" lon="7.9784432"><ele>200.85714285714286</ele><time>2026-03-29T13:55:08.808Z</time></trkpt><trkpt lat="44.6470938" lon="7.9784748"><ele>201.28571428571428</ele><time>2026-03-29T13:55:09.765Z</time></trkpt><trkpt lat="44.6471652" lon="7.9785086"><ele>201.71428571428572</ele><time>2026-03-29T13:55:10.788Z</time></trkpt><trkpt lat="44.6472379" lon="7.9785447"><ele>202.14285714285714</ele><time>2026-03-29T13:55:11.82Z</time></trkpt><trkpt lat="44.6473071" lon="7.9785787"><ele>202.57142857142858</ele><time>2026-03-29T13:55:12.813Z</time></trkpt><trkpt lat="44.6473793" lon="7.9786101"><ele>203.0</ele><time>2026-03-29T13:55:13.799Z</time></trkpt><trkpt lat="44.6474521" lon="7.9786411"><ele>203.0</ele><time>2026-03-29T13:55:14.794Z</time></trkpt><trkpt lat="44.6475238" lon="7.978674"><ele>203.0</ele><time>2026-03-29T13:55:15.787Z</time></trkpt><trkpt lat="44.6475957" lon="7.9787018"><ele>203.0</ele><time>2026-03-29T13:55:16.809Z</time></trkpt><trkpt lat="44.647663" lon="7.9787285"><ele>203.0</ele><time>2026-03-29T13:55:17.781Z</time></trkpt><trkpt lat="44.6477314" lon="7.9787601"><ele>203.0</ele><time>2026-03-29T13:55:18.813Z</time></trkpt><trkpt lat="44.6477959" lon="7.9787887"><ele>203.0</ele><time>2026-03-29T13:55:19.821Z</time></trkpt><trkpt lat="44.6478589" lon="7.9788135"><ele>203.0</ele><time>2026-03-29T13:55:20.812Z</time></trkpt><trkpt lat="44.6479497" lon="7.9788716"><ele>202.0</ele><time>2026-03-29T13:55:22.816Z</time></trkpt><trkpt lat="44.6480062" lon="7.9789859"><ele>201.0</ele><time>2026-03-29T13:55:24.793Z</time></trkpt><trkpt lat="44.6480019" lon="7.9791125"><ele>200.0</ele><time>2026-03-29T13:55:26.796Z</time></trkpt><trkpt lat="44.6479941" lon="7.9792465"><ele>199.0</ele><time>2026-03-29T13:55:28.774Z</time></trkpt><trkpt lat="44.6479831" lon="7.9793791"><ele>198.0</ele><time>2026-03-29T13:55:30.76Z</time></trkpt><trkpt lat="44.6479789" lon="7.9795153"><ele>198.0</ele><time>2026-03-29T13:55:32.788Z</time></trkpt><trkpt lat="44.6479764" lon="7.9796584"><ele>198.0</ele><time>2026-03-29T13:55:34.811Z</time></trkpt><trkpt lat="44.6479727" lon="7.9797931"><ele>198.0</ele><time>2026-03-29T13:55:36.757Z</time></trkpt><trkpt lat="44.6479665" lon="7.9799223"><ele>198.0</ele><time>2026-03-29T13:55:38.742Z</time></trkpt><trkpt lat="44.6479656" lon="7.9800582"><ele>198.0</ele><time>2026-03-29T13:55:40.782Z</time></trkpt><trkpt lat="44.6479633" lon="7.9801969"><ele>198.4</ele><time>2026-03-29T13:55:42.799Z</time></trkpt><trkpt lat="44.6479652" lon="7.980326"><ele>198.8</ele><time>2026-03-29T13:55:44.763Z</time></trkpt><trkpt lat="44.6479707" lon="7.9804603"><ele>199.2</ele><time>2026-03-29T13:55:46.78Z</time></trkpt><trkpt lat="44.6479772" lon="7.9805858"><ele>199.6</ele><time>2026-03-29T13:55:48.762Z</time></trkpt><trkpt lat="44.6479852" lon="7.9807122"><ele>200.0</ele><time>2026-03-29T13:55:50.794Z</time></trkpt><trkpt lat="44.647984" lon="7.9808362"><ele>199.83333333333334</ele><time>2026-03-29T13:55:52.784Z</time></trkpt><trkpt lat="44.6479758" lon="7.980958"><ele>199.66666666666669</ele><time>2026-03-29T13:55:54.765Z</time></trkpt><trkpt lat="44.6479663" lon="7.9810724"><ele>199.5</ele><time>2026-03-29T13:55:56.773Z</time></trkpt><trkpt lat="44.6479527" lon="7.981205"><ele>199.33333333333331</ele><time>2026-03-29T13:55:58.912Z</time></trkpt><trkpt lat="44.6479277" lon="7.9813211"><ele>199.16666666666666</ele><time>2026-03-29T13:56:00.823Z</time></trkpt><trkpt lat="44.6478974" lon="7.9814386"><ele>199.0</ele><time>2026-03-29T13:56:02.771Z</time></trkpt><trkpt lat="44.6478621" lon="7.9815547"><ele>198.99999999999997</ele><time>2026-03-29T13:56:04.797Z</time></trkpt><trkpt lat="44.647834" lon="7.981661"><ele>199.0</ele><time>2026-03-29T13:56:06.779Z</time></trkpt><trkpt lat="44.6478003" lon="7.9817724"><ele>199.0</ele><time>2026-03-29T13:56:08.769Z</time></trkpt><trkpt lat="44.6477649" lon="7.9818769"><ele>199.0</ele><time>2026-03-29T13:56:10.782Z</time></trkpt><trkpt lat="44.6477315" lon="7.9819711"><ele>198.99999999999997</ele><time>2026-03-29T13:56:12.77Z</time></trkpt><trkpt lat="44.6477067" lon="7.9820595"><ele>199.0</ele><time>2026-03-29T13:56:14.772Z</time></trkpt><trkpt lat="44.6476763" lon="7.9821597"><ele>198.99999999999997</ele><time>2026-03-29T13:56:16.782Z</time></trkpt><trkpt lat="44.6476468" lon="7.9822568"><ele>199.0</ele><time>2026-03-29T13:56:18.82Z</time></trkpt><trkpt lat="44.6476195" lon="7.9823429"><ele>199.0</ele><time>2026-03-29T13:56:20.808Z</time></trkpt><trkpt lat="44.6475735" lon="7.9824848"><ele>199.0</ele><time>2026-03-29T13:56:23.802Z</time></trkpt><trkpt lat="44.6475467" lon="7.9825879"><ele>198.99999999999997</ele><time>2026-03-29T13:56:25.802Z</time></trkpt><trkpt lat="44.6475115" lon="7.9826839"><ele>199.0</ele><time>2026-03-29T13:56:27.819Z</time></trkpt><trkpt lat="44.6474817" lon="7.9827714"><ele>198.99999999999997</ele><time>2026-03-29T13:56:29.806Z</time></trkpt><trkpt lat="44.6474566" lon="7.9828554"><ele>199.0</ele><time>2026-03-29T13:56:31.792Z</time></trkpt><trkpt lat="44.64743" lon="7.9829402"><ele>199.0</ele><time>2026-03-29T13:56:33.834Z</time></trkpt><trkpt lat="44.6473997" lon="7.9830196"><ele>199.0</ele><time>2026-03-29T13:56:35.81Z</time></trkpt><trkpt lat="44.6473715" lon="7.9831046"><ele>198.99999999999997</ele><time>2026-03-29T13:56:37.791Z</time></trkpt><trkpt lat="44.6473286" lon="7.9832495"><ele>199.0</ele><time>2026-03-29T13:56:40.854Z</time></trkpt><trkpt lat="44.6472954" lon="7.9833663"><ele>198.83333333333331</ele><time>2026-03-29T13:56:43.805Z</time></trkpt><trkpt lat="44.6472735" lon="7.9834706"><ele>198.66666666666666</ele><time>2026-03-29T13:56:46.802Z</time></trkpt><trkpt lat="44.6472474" lon="7.9835572"><ele>198.5</ele><time>2026-03-29T13:56:48.8Z</time></trkpt><trkpt lat="44.6472152" lon="7.9836439"><ele>198.33333333333331</ele><time>2026-03-29T13:56:50.795Z</time></trkpt><trkpt lat="44.6471834" lon="7.9837297"><ele>198.16666666666666</ele><time>2026-03-29T13:56:53.759Z</time></trkpt><trkpt lat="44.6471483" lon="7.9838642"><ele>198.0</ele><time>2026-03-29T13:56:56.786Z</time></trkpt><trkpt lat="44.6471205" lon="7.9839769"><ele>198.0</ele><time>2026-03-29T13:56:58.806Z</time></trkpt><trkpt lat="44.647096" lon="7.9840798"><ele>198.0</ele><time>2026-03-29T13:57:00.796Z</time></trkpt><trkpt lat="44.6470657" lon="7.9841815"><ele>198.0</ele><time>2026-03-29T13:57:02.828Z</time></trkpt><trkpt lat="44.6470393" lon="7.9842748"><ele>198.0</ele><time>2026-03-29T13:57:04.77Z</time></trkpt><trkpt lat="44.6470151" lon="7.9843681"><ele>198.0</ele><time>2026-03-29T13:57:06.795Z</time></trkpt><trkpt lat="44.6469882" lon="7.9844564"><ele>198.0</ele><time>2026-03-29T13:57:08.812Z</time></trkpt><trkpt lat="44.6469672" lon="7.9845427"><ele>198.0</ele><time>2026-03-29T13:57:10.779Z</time></trkpt><trkpt lat="44.6469405" lon="7.9846289"><ele>198.33333333333334</ele><time>2026-03-29T13:57:12.76Z</time></trkpt><trkpt lat="44.6469102" lon="7.9847738"><ele>198.66666666666669</ele><time>2026-03-29T13:57:15.773Z</time></trkpt><trkpt lat="44.6468845" lon="7.9848704"><ele>199.0</ele><time>2026-03-29T13:57:17.799Z</time></trkpt><trkpt lat="44.6468634" lon="7.9849589"><ele>199.33333333333334</ele><time>2026-03-29T13:57:19.822Z</time></trkpt><trkpt lat="44.646849" lon="7.9850917"><ele>199.66666666666669</ele><time>2026-03-29T13:57:22.816Z</time></trkpt><trkpt lat="44.6468207" lon="7.9851791"><ele>200.0</ele><time>2026-03-29T13:57:24.827Z</time></trkpt><trkpt lat="44.6467976" lon="7.9852727"><ele>200.00000000000003</ele><time>2026-03-29T13:57:26.84Z</time></trkpt><trkpt lat="44.6467793" lon="7.9853615"><ele>200.0</ele><time>2026-03-29T13:57:28.821Z</time></trkpt><trkpt lat="44.646751" lon="7.9854497"><ele>200.0</ele><time>2026-03-29T13:57:30.821Z</time></trkpt><trkpt lat="44.6467182" lon="7.9855255"><ele>200.0</ele><time>2026-03-29T13:57:32.788Z</time></trkpt><trkpt lat="44.6467012" lon="7.9856231"><ele>200.0</ele><time>2026-03-29T13:57:34.788Z</time></trkpt><trkpt lat="44.6466839" lon="7.9857114"><ele>200.00000000000003</ele><time>2026-03-29T13:57:36.803Z</time></trkpt><trkpt lat="44.6466567" lon="7.9858117"><ele>200.0</ele><time>2026-03-29T13:57:39.779Z</time></trkpt><trkpt lat="44.6466292" lon="7.985912"><ele>200.2</ele><time>2026-03-29T13:57:42.809Z</time></trkpt><trkpt lat="44.6466041" lon="7.9860183"><ele>200.4</ele><time>2026-03-29T13:57:46.812Z</time></trkpt><trkpt lat="44.6465771" lon="7.9861137"><ele>200.60000000000002</ele><time>2026-03-29T13:57:48.774Z</time></trkpt><trkpt lat="44.6465456" lon="7.9862419"><ele>200.8</ele><time>2026-03-29T13:57:50.791Z</time></trkpt><trkpt lat="44.646513" lon="7.986383"><ele>201.0</ele><time>2026-03-29T13:57:52.817Z</time></trkpt><trkpt lat="44.6464722" lon="7.9865545"><ele>200.8</ele><time>2026-03-29T13:57:54.926Z</time></trkpt><trkpt lat="44.6464315" lon="7.9867126"><ele>200.60000000000002</ele><time>2026-03-29T13:57:56.913Z</time></trkpt><trkpt lat="44.6463933" lon="7.9868676"><ele>200.4</ele><time>2026-03-29T13:57:58.807Z</time></trkpt><trkpt lat="44.6463712" lon="7.9869518"><ele>200.2</ele><time>2026-03-29T13:57:59.868Z</time></trkpt><trkpt lat="44.6463163" lon="7.987088"><ele>200.0</ele><time>2026-03-29T13:58:01.785Z</time></trkpt><trkpt lat="44.6462747" lon="7.9872349"><ele>200.0</ele><time>2026-03-29T13:58:03.822Z</time></trkpt><trkpt lat="44.6462474" lon="7.9873715"><ele>200.0</ele><time>2026-03-29T13:58:05.816Z</time></trkpt><trkpt lat="44.6462233" lon="7.9874934"><ele>200.0</ele><time>2026-03-29T13:58:07.781Z</time></trkpt><trkpt lat="44.6461887" lon="7.9876212"><ele>200.0</ele><time>2026-03-29T13:58:09.829Z</time></trkpt><trkpt lat="44.6461558" lon="7.9877497"><ele>200.0</ele><time>2026-03-29T13:58:11.9Z</time></trkpt><trkpt lat="44.6461151" lon="7.987935"><ele>200.16666666666669</ele><time>2026-03-29T13:58:14.802Z</time></trkpt><trkpt lat="44.646082" lon="7.9880645"><ele>200.33333333333334</ele><time>2026-03-29T13:58:16.846Z</time></trkpt><trkpt lat="44.6460397" lon="7.9882728"><ele>200.5</ele><time>2026-03-29T13:58:20.883Z</time></trkpt><trkpt lat="44.6460178" lon="7.9883604"><ele>200.66666666666669</ele><time>2026-03-29T13:58:22.828Z</time></trkpt><trkpt lat="44.646002" lon="7.9884479"><ele>200.83333333333334</ele><time>2026-03-29T13:58:24.812Z</time></trkpt><trkpt lat="44.6459772" lon="7.9885334"><ele>201.0</ele><time>2026-03-29T13:58:26.833Z</time></trkpt><trkpt lat="44.6459605" lon="7.9886258"><ele>201.0</ele><time>2026-03-29T13:58:28.841Z</time></trkpt><trkpt lat="44.6459368" lon="7.9887229"><ele>201.0</ele><time>2026-03-29T13:58:30.837Z</time></trkpt><trkpt lat="44.6459147" lon="7.9888287"><ele>201.0</ele><time>2026-03-29T13:58:32.836Z</time></trkpt><trkpt lat="44.6458909" lon="7.9889329"><ele>201.0</ele><time>2026-03-29T13:58:34.84Z</time></trkpt><trkpt lat="44.6458686" lon="7.9890376"><ele>201.0</ele><time>2026-03-29T13:58:36.806Z</time></trkpt><trkpt lat="44.6458426" lon="7.9891445"><ele>201.0</ele><time>2026-03-29T13:58:38.843Z</time></trkpt><trkpt lat="44.6458144" lon="7.9892449"><ele>201.33333333333334</ele><time>2026-03-29T13:58:40.807Z</time></trkpt><trkpt lat="44.6457851" lon="7.989344"><ele>201.66666666666669</ele><time>2026-03-29T13:58:42.812Z</time></trkpt><trkpt lat="44.6457575" lon="7.9894416"><ele>202.0</ele><time>2026-03-29T13:58:44.801Z</time></trkpt><trkpt lat="44.6457308" lon="7.9895458"><ele>202.33333333333334</ele><time>2026-03-29T13:58:46.837Z</time></trkpt><trkpt lat="44.6456978" lon="7.9896439"><ele>202.66666666666669</ele><time>2026-03-29T13:58:48.778Z</time></trkpt><trkpt lat="44.6456618" lon="7.9897465"><ele>203.0</ele><time>2026-03-29T13:58:50.824Z</time></trkpt><trkpt lat="44.6456299" lon="7.9898493"><ele>203.00000000000003</ele><time>2026-03-29T13:58:52.815Z</time></trkpt><trkpt lat="44.6455971" lon="7.9899514"><ele>203.0</ele><time>2026-03-29T13:58:54.824Z</time></trkpt><trkpt lat="44.6455645" lon="7.9900638"><ele>203.0</ele><time>2026-03-29T13:58:56.845Z</time></trkpt><trkpt lat="44.6455251" lon="7.9901674"><ele>203.0</ele><time>2026-03-29T13:58:58.843Z</time></trkpt><trkpt lat="44.6454882" lon="7.9902839"><ele>203.00000000000003</ele><time>2026-03-29T13:59:00.849Z</time></trkpt><trkpt lat="44.6454538" lon="7.9904068"><ele>203.0</ele><time>2026-03-29T13:59:02.904Z</time></trkpt><trkpt lat="44.6454202" lon="7.9905175"><ele>202.83333333333334</ele><time>2026-03-29T13:59:04.814Z</time></trkpt><trkpt lat="44.6453846" lon="7.9906257"><ele>202.66666666666669</ele><time>2026-03-29T13:59:06.824Z</time></trkpt><trkpt lat="44.6453466" lon="7.9907372"><ele>202.5</ele><time>2026-03-29T13:59:08.808Z</time></trkpt><trkpt lat="44.6453088" lon="7.990849"><ele>202.33333333333331</ele><time>2026-03-29T13:59:10.767Z</time></trkpt><trkpt lat="44.6452638" lon="7.9909575"><ele>202.16666666666666</ele><time>2026-03-29T13:59:12.814Z</time></trkpt><trkpt lat="44.6452121" lon="7.9910701"><ele>202.0</ele><time>2026-03-29T13:59:14.943Z</time></trkpt><trkpt lat="44.6451621" lon="7.9911802"><ele>202.39999999999998</ele><time>2026-03-29T13:59:16.815Z</time></trkpt><trkpt lat="44.6450862" lon="7.9912887"><ele>202.79999999999998</ele><time>2026-03-29T13:59:18.806Z</time></trkpt><trkpt lat="44.6450088" lon="7.9914153"><ele>203.2</ele><time>2026-03-29T13:59:20.778Z</time></trkpt><trkpt lat="44.6449639" lon="7.9914791"><ele>203.6</ele><time>2026-03-29T13:59:21.813Z</time></trkpt><trkpt lat="44.6449125" lon="7.9915438"><ele>204.0</ele><time>2026-03-29T13:59:22.976Z</time></trkpt><trkpt lat="44.6448381" lon="7.9916556"><ele>203.79999999999998</ele><time>2026-03-29T13:59:24.813Z</time></trkpt><trkpt lat="44.6448048" lon="7.9917859"><ele>203.6</ele><time>2026-03-29T13:59:26.81Z</time></trkpt><trkpt lat="44.6448401" lon="7.9918874"><ele>203.4</ele><time>2026-03-29T13:59:28.805Z</time></trkpt><trkpt lat="44.6449026" lon="7.9920082"><ele>203.2</ele><time>2026-03-29T13:59:30.798Z</time></trkpt><trkpt lat="44.6449704" lon="7.9921119"><ele>203.0</ele><time>2026-03-29T13:59:32.769Z</time></trkpt><trkpt lat="44.6450359" lon="7.9922178"><ele>203.00000000000003</ele><time>2026-03-29T13:59:34.769Z</time></trkpt><trkpt lat="44.6450915" lon="7.9923194"><ele>203.0</ele><time>2026-03-29T13:59:36.781Z</time></trkpt><trkpt lat="44.645159" lon="7.9924182"><ele>203.0</ele><time>2026-03-29T13:59:38.809Z</time></trkpt><trkpt lat="44.6452118" lon="7.9925228"><ele>203.0</ele><time>2026-03-29T13:59:40.884Z</time></trkpt><trkpt lat="44.6452507" lon="7.9926106"><ele>203.00000000000003</ele><time>2026-03-29T13:59:42.823Z</time></trkpt><trkpt lat="44.6452931" lon="7.9926779"><ele>203.0</ele><time>2026-03-29T13:59:44.792Z</time></trkpt><trkpt lat="44.6453548" lon="7.9927789"><ele>203.0</ele><time>2026-03-29T13:59:47.814Z</time></trkpt><trkpt lat="44.6454035" lon="7.9928785"><ele>203.0</ele><time>2026-03-29T13:59:49.8Z</time></trkpt><trkpt lat="44.6454569" lon="7.9930004"><ele>203.0</ele><time>2026-03-29T13:59:51.793Z</time></trkpt><trkpt lat="44.6455214" lon="7.9931332"><ele>203.0</ele><time>2026-03-29T13:59:54.017Z</time></trkpt><trkpt lat="44.6455675" lon="7.9932395"><ele>203.0</ele><time>2026-03-29T13:59:55.92Z</time></trkpt><trkpt lat="44.6456107" lon="7.9933222"><ele>203.14285714285714</ele><time>2026-03-29T13:59:57.805Z</time></trkpt><trkpt lat="44.6456546" lon="7.9934007"><ele>203.28571428571428</ele><time>2026-03-29T13:59:59.803Z</time></trkpt><trkpt lat="44.6456953" lon="7.9934834"><ele>203.42857142857144</ele><time>2026-03-29T14:00:01.77Z</time></trkpt><trkpt lat="44.6457361" lon="7.9935637"><ele>203.57142857142856</ele><time>2026-03-29T14:00:03.794Z</time></trkpt><trkpt lat="44.6457741" lon="7.9936453"><ele>203.71428571428572</ele><time>2026-03-29T14:00:05.777Z</time></trkpt><trkpt lat="44.6458195" lon="7.9937318"><ele>203.85714285714286</ele><time>2026-03-29T14:00:07.801Z</time></trkpt><trkpt lat="44.6458714" lon="7.9938191"><ele>204.0</ele><time>2026-03-29T14:00:09.831Z</time></trkpt><trkpt lat="44.6459215" lon="7.9939044"><ele>204.0</ele><time>2026-03-29T14:00:11.813Z</time></trkpt><trkpt lat="44.6459698" lon="7.994003"><ele>204.0</ele><time>2026-03-29T14:00:13.881Z</time></trkpt><trkpt lat="44.6460213" lon="7.9940903"><ele>204.0</ele><time>2026-03-29T14:00:15.832Z</time></trkpt><trkpt lat="44.646071" lon="7.9941856"><ele>204.0</ele><time>2026-03-29T14:00:17.8Z</time></trkpt><trkpt lat="44.6461193" lon="7.9942657"><ele>204.0</ele><time>2026-03-29T14:00:19.845Z</time></trkpt><trkpt lat="44.6461689" lon="7.9943527"><ele>204.0</ele><time>2026-03-29T14:00:21.802Z</time></trkpt><trkpt lat="44.6462177" lon="7.9944475"><ele>204.16666666666666</ele><time>2026-03-29T14:00:23.809Z</time></trkpt><trkpt lat="44.6462661" lon="7.9945317"><ele>204.33333333333331</ele><time>2026-03-29T14:00:25.83Z</time></trkpt><trkpt lat="44.6463068" lon="7.9946152"><ele>204.5</ele><time>2026-03-29T14:00:27.804Z</time></trkpt><trkpt lat="44.646354" lon="7.9947047"><ele>204.66666666666666</ele><time>2026-03-29T14:00:29.901Z</time></trkpt><trkpt lat="44.6464064" lon="7.9947939"><ele>204.83333333333331</ele><time>2026-03-29T14:00:31.789Z</time></trkpt><trkpt lat="44.6464509" lon="7.9948799"><ele>205.0</ele><time>2026-03-29T14:00:33.785Z</time></trkpt><trkpt lat="44.6464938" lon="7.9949745"><ele>205.66666666666666</ele><time>2026-03-29T14:00:35.774Z</time></trkpt><trkpt lat="44.6465447" lon="7.9950666"><ele>206.33333333333331</ele><time>2026-03-29T14:00:37.804Z</time></trkpt><trkpt lat="44.6465939" lon="7.9951556"><ele>207.0</ele><time>2026-03-29T14:00:39.806Z</time></trkpt><trkpt lat="44.6466451" lon="7.995241"><ele>207.66666666666669</ele><time>2026-03-29T14:00:41.802Z</time></trkpt><trkpt lat="44.6466927" lon="7.9953306"><ele>208.33333333333334</ele><time>2026-03-29T14:00:43.807Z</time></trkpt><trkpt lat="44.6467324" lon="7.9954186"><ele>209.0</ele><time>2026-03-29T14:00:45.792Z</time></trkpt><trkpt lat="44.6467646" lon="7.9955112"><ele>209.00000000000003</ele><time>2026-03-29T14:00:47.819Z</time></trkpt><trkpt lat="44.6468206" lon="7.9956026"><ele>209.0</ele><time>2026-03-29T14:00:49.904Z</time></trkpt><trkpt lat="44.6468772" lon="7.9956861"><ele>209.0</ele><time>2026-03-29T14:00:51.829Z</time></trkpt><trkpt lat="44.6469247" lon="7.9957678"><ele>209.0</ele><time>2026-03-29T14:00:53.818Z</time></trkpt><trkpt lat="44.6469704" lon="7.9958422"><ele>209.00000000000003</ele><time>2026-03-29T14:00:56.796Z</time></trkpt><trkpt lat="44.6470084" lon="7.9959272"><ele>209.0</ele><time>2026-03-29T14:03:23.812Z</time></trkpt><trkpt lat="44.6470642" lon="7.9959789"><ele>208.83333333333334</ele><time>2026-03-29T14:03:30.919Z</time></trkpt><trkpt lat="44.6471291" lon="7.9959938"><ele>208.66666666666669</ele><time>2026-03-29T14:03:38.821Z</time></trkpt><trkpt lat="44.6472109" lon="7.9959086"><ele>208.5</ele><time>2026-03-29T14:03:41.788Z</time></trkpt><trkpt lat="44.6472643" lon="7.995839"><ele>208.33333333333331</ele><time>2026-03-29T14:03:43.795Z</time></trkpt><trkpt lat="44.6473329" lon="7.995759"><ele>208.16666666666666</ele><time>2026-03-29T14:03:46.88Z</time></trkpt><trkpt lat="44.6473878" lon="7.995695"><ele>208.0</ele><time>2026-03-29T14:03:49.798Z</time></trkpt><trkpt lat="44.647457" lon="7.9956259"><ele>208.0</ele><time>2026-03-29T14:03:52.848Z</time></trkpt><trkpt lat="44.6475131" lon="7.9955578"><ele>208.0</ele><time>2026-03-29T14:03:54.84Z</time></trkpt><trkpt lat="44.6475894" lon="7.9954862"><ele>208.0</ele><time>2026-03-29T14:03:56.817Z</time></trkpt><trkpt lat="44.6476805" lon="7.9954003"><ele>208.0</ele><time>2026-03-29T14:03:58.787Z</time></trkpt><trkpt lat="44.6477646" lon="7.9953088"><ele>208.0</ele><time>2026-03-29T14:04:00.802Z</time></trkpt><trkpt lat="44.6478502" lon="7.9952176"><ele>207.75</ele><time>2026-03-29T14:04:02.819Z</time></trkpt><trkpt lat="44.6479376" lon="7.9951284"><ele>207.5</ele><time>2026-03-29T14:04:04.82Z</time></trkpt><trkpt lat="44.6480845" lon="7.9950259"><ele>207.25</ele><time>2026-03-29T14:04:07.853Z</time></trkpt><trkpt lat="44.6481912" lon="7.9949737"><ele>207.0</ele><time>2026-03-29T14:04:10.008Z</time></trkpt><trkpt lat="44.6482833" lon="7.9949415"><ele>207.0</ele><time>2026-03-29T14:04:11.832Z</time></trkpt><trkpt lat="44.6483902" lon="7.9949119"><ele>207.0</ele><time>2026-03-29T14:04:13.779Z</time></trkpt><trkpt lat="44.6484954" lon="7.9948846"><ele>207.0</ele><time>2026-03-29T14:04:15.771Z</time></trkpt><trkpt lat="44.6486005" lon="7.9948561"><ele>207.0</ele><time>2026-03-29T14:04:17.849Z</time></trkpt><trkpt lat="44.6486989" lon="7.99483"><ele>207.0</ele><time>2026-03-29T14:04:19.798Z</time></trkpt><trkpt lat="44.6488071" lon="7.9947781"><ele>209.0</ele><time>2026-03-29T14:04:21.917Z</time></trkpt><trkpt lat="44.6489032" lon="7.9947248"><ele>211.0</ele><time>2026-03-29T14:04:23.786Z</time></trkpt><trkpt lat="44.6490055" lon="7.9946548"><ele>213.0</ele><time>2026-03-29T14:04:25.782Z</time></trkpt><trkpt lat="44.6490594" lon="7.9945995"><ele>215.0</ele><time>2026-03-29T14:04:26.891Z</time></trkpt><trkpt lat="44.6491112" lon="7.9945429"><ele>217.0</ele><time>2026-03-29T14:04:28.001Z</time></trkpt><trkpt lat="44.6491829" lon="7.994433"><ele>217.0</ele><time>2026-03-29T14:04:29.802Z</time></trkpt><trkpt lat="44.6492594" lon="7.9943077"><ele>217.0</ele><time>2026-03-29T14:04:31.802Z</time></trkpt><trkpt lat="44.6493333" lon="7.9941799"><ele>217.0</ele><time>2026-03-29T14:04:33.764Z</time></trkpt><trkpt lat="44.6494032" lon="7.9940573"><ele>217.0</ele><time>2026-03-29T14:04:35.791Z</time></trkpt><trkpt lat="44.6494717" lon="7.9939368"><ele>214.0</ele><time>2026-03-29T14:04:37.784Z</time></trkpt><trkpt lat="44.6495403" lon="7.9938208"><ele>211.0</ele><time>2026-03-29T14:04:39.753Z</time></trkpt><trkpt lat="44.6496147" lon="7.9936991"><ele>208.0</ele><time>2026-03-29T14:04:41.783Z</time></trkpt><trkpt lat="44.6496907" lon="7.9935664"><ele>205.0</ele><time>2026-03-29T14:04:43.774Z</time></trkpt><trkpt lat="44.6497699" lon="7.9934381"><ele>204.75</ele><time>2026-03-29T14:04:45.825Z</time></trkpt><trkpt lat="44.6498439" lon="7.9933046"><ele>204.5</ele><time>2026-03-29T14:04:47.816Z</time></trkpt><trkpt lat="44.6499159" lon="7.9931828"><ele>204.25</ele><time>2026-03-29T14:04:49.798Z</time></trkpt><trkpt lat="44.6499905" lon="7.993059"><ele>204.0</ele><time>2026-03-29T14:04:51.794Z</time></trkpt><trkpt lat="44.6500648" lon="7.9929255"><ele>204.0</ele><time>2026-03-29T14:04:53.802Z</time></trkpt><trkpt lat="44.6501355" lon="7.9928037"><ele>204.0</ele><time>2026-03-29T14:04:55.801Z</time></trkpt><trkpt lat="44.6502075" lon="7.992675"><ele>204.0</ele><time>2026-03-29T14:04:57.796Z</time></trkpt><trkpt lat="44.6502806" lon="7.9925453"><ele>204.0</ele><time>2026-03-29T14:04:59.799Z</time></trkpt><trkpt lat="44.6503496" lon="7.9924165"><ele>204.2</ele><time>2026-03-29T14:05:01.818Z</time></trkpt><trkpt lat="44.6504149" lon="7.9922999"><ele>204.39999999999998</ele><time>2026-03-29T14:05:03.809Z</time></trkpt><trkpt lat="44.6504784" lon="7.9921823"><ele>204.6</ele><time>2026-03-29T14:05:05.799Z</time></trkpt><trkpt lat="44.6505414" lon="7.9920802"><ele>204.8</ele><time>2026-03-29T14:05:07.795Z</time></trkpt><trkpt lat="44.6506009" lon="7.9919791"><ele>205.0</ele><time>2026-03-29T14:05:09.81Z</time></trkpt><trkpt lat="44.6506653" lon="7.9918665"><ele>204.99999999999997</ele><time>2026-03-29T14:05:11.802Z</time></trkpt><trkpt lat="44.6507302" lon="7.9917604"><ele>205.0</ele><time>2026-03-29T14:05:13.804Z</time></trkpt><trkpt lat="44.650796" lon="7.9916942"><ele>205.0</ele><time>2026-03-29T14:05:15.605Z</time></trkpt><trkpt lat="44.6508684" lon="7.9916501"><ele>205.0</ele><time>2026-03-29T14:05:17.437Z</time></trkpt><trkpt lat="44.6509401" lon="7.9916626"><ele>204.99999999999997</ele><time>2026-03-29T14:05:19.436Z</time></trkpt><trkpt lat="44.6509819" lon="7.9917577"><ele>205.0</ele><time>2026-03-29T14:05:22.792Z</time></trkpt><trkpt lat="44.6510358" lon="7.9918289"><ele>204.99999999999997</ele><time>2026-03-29T14:05:24.786Z</time></trkpt><trkpt lat="44.6511038" lon="7.9918996"><ele>205.0</ele><time>2026-03-29T14:05:26.782Z</time></trkpt><trkpt lat="44.6511775" lon="7.9919715"><ele>205.0</ele><time>2026-03-29T14:05:28.778Z</time></trkpt><trkpt lat="44.6512474" lon="7.9920369"><ele>205.0</ele><time>2026-03-29T14:05:30.797Z</time></trkpt><trkpt lat="44.6513051" lon="7.992083"><ele>204.99999999999997</ele><time>2026-03-29T14:05:32.791Z</time></trkpt><trkpt lat="44.651373" lon="7.9921217"><ele>205.0</ele><time>2026-03-29T14:05:34.798Z</time></trkpt><trkpt lat="44.6514364" lon="7.9921634"><ele>206.71428571428572</ele><time>2026-03-29T14:05:36.79Z</time></trkpt><trkpt lat="44.6515054" lon="7.9922017"><ele>208.42857142857142</ele><time>2026-03-29T14:05:38.791Z</time></trkpt><trkpt lat="44.6515615" lon="7.9922615"><ele>210.14285714285714</ele><time>2026-03-29T14:05:40.921Z</time></trkpt><trkpt lat="44.6516349" lon="7.9922867"><ele>211.85714285714286</ele><time>2026-03-29T14:05:43.788Z</time></trkpt><trkpt lat="44.6517045" lon="7.9923234"><ele>213.57142857142856</ele><time>2026-03-29T14:05:46.794Z</time></trkpt><trkpt lat="44.6517716" lon="7.9923514"><ele>215.28571428571428</ele><time>2026-03-29T14:05:49.734Z</time></trkpt><trkpt lat="44.6518478" lon="7.9923885"><ele>217.0</ele><time>2026-03-29T14:05:53.783Z</time></trkpt><trkpt lat="44.6519072" lon="7.9924243"><ele>220.14285714285714</ele><time>2026-03-29T14:06:22.879Z</time></trkpt><trkpt lat="44.6519641" lon="7.9924674"><ele>223.28571428571428</ele><time>2026-03-29T14:06:26.795Z</time></trkpt><trkpt lat="44.6520269" lon="7.9924978"><ele>226.42857142857144</ele><time>2026-03-29T14:06:30.81Z</time></trkpt><trkpt lat="44.6520914" lon="7.9925226"><ele>229.57142857142858</ele><time>2026-03-29T14:06:34.733Z</time></trkpt><trkpt lat="44.652161" lon="7.9925637"><ele>232.71428571428572</ele><time>2026-03-29T14:06:38.799Z</time></trkpt><trkpt lat="44.6522333" lon="7.9926083"><ele>235.8571428571429</ele><time>2026-03-29T14:06:42.778Z</time></trkpt><trkpt lat="44.6523093" lon="7.9926511"><ele>239.00000000000003</ele><time>2026-03-29T14:06:46.787Z</time></trkpt><trkpt lat="44.6523822" lon="7.9926988"><ele>240.00000000000003</ele><time>2026-03-29T14:06:50.816Z</time></trkpt><trkpt lat="44.6524435" lon="7.9927428"><ele>241.0</ele><time>2026-03-29T14:06:54.788Z</time></trkpt><trkpt lat="44.6524949" lon="7.9928134"><ele>242.00000000000003</ele><time>2026-03-29T14:06:58.755Z</time></trkpt><trkpt lat="44.652533" lon="7.9929156"><ele>243.00000000000003</ele><time>2026-03-29T14:07:02.885Z</time></trkpt><trkpt lat="44.6525633" lon="7.9930059"><ele>244.0</ele><time>2026-03-29T14:07:07.77Z</time></trkpt><trkpt lat="44.6525726" lon="7.9930968"><ele>245.00000000000003</ele><time>2026-03-29T14:07:33.797Z</time></trkpt><trkpt lat="44.6526253" lon="7.9931554"><ele>246.00000000000003</ele><time>2026-03-29T14:07:51.793Z</time></trkpt><trkpt lat="44.6526857" lon="7.9931866"><ele>246.0</ele><time>2026-03-29T14:08:09.749Z</time></trkpt><trkpt lat="44.6527395" lon="7.9931141"><ele>246.0</ele><time>2026-03-29T14:17:54.822Z</time></trkpt><trkpt lat="44.6528091" lon="7.9930877"><ele>246.0</ele><time>2026-03-29T14:17:57.787Z</time></trkpt><trkpt lat="44.6528961" lon="7.9930365"><ele>246.0</ele><time>2026-03-29T14:18:00.819Z</time></trkpt><trkpt lat="44.6529508" lon="7.9929745"><ele>246.0</ele><time>2026-03-29T14:18:02.797Z</time></trkpt><trkpt lat="44.6530089" lon="7.9928893"><ele>246.0</ele><time>2026-03-29T14:18:04.828Z</time></trkpt><trkpt lat="44.6530536" lon="7.9927902"><ele>247.8</ele><time>2026-03-29T14:18:06.835Z</time></trkpt><trkpt lat="44.6531012" lon="7.9926841"><ele>249.60000000000002</ele><time>2026-03-29T14:18:08.764Z</time></trkpt><trkpt lat="44.6531497" lon="7.9925588"><ele>251.4</ele><time>2026-03-29T14:18:10.819Z</time></trkpt><trkpt lat="44.6532063" lon="7.992432"><ele>253.2</ele><time>2026-03-29T14:18:12.812Z</time></trkpt><trkpt lat="44.6532723" lon="7.9923226"><ele>255.0</ele><time>2026-03-29T14:18:14.812Z</time></trkpt><trkpt lat="44.6533422" lon="7.9922263"><ele>255.0</ele><time>2026-03-29T14:18:16.838Z</time></trkpt><trkpt lat="44.6534509" lon="7.9922008"><ele>255.0</ele><time>2026-03-29T14:18:20.83Z</time></trkpt><trkpt lat="44.6535191" lon="7.992276"><ele>255.0</ele><time>2026-03-29T14:18:32.95Z</time></trkpt><trkpt lat="44.6535573" lon="7.9923904"><ele>255.0</ele><time>2026-03-29T14:18:35.835Z</time></trkpt><trkpt lat="44.6535589" lon="7.9924963"><ele>255.0</ele><time>2026-03-29T14:18:37.799Z</time></trkpt><trkpt lat="44.6535175" lon="7.9926133"><ele>255.66666666666666</ele><time>2026-03-29T14:18:39.807Z</time></trkpt><trkpt lat="44.6534748" lon="7.9927032"><ele>256.3333333333333</ele><time>2026-03-29T14:18:42.819Z</time></trkpt><trkpt lat="44.6534387" lon="7.9927859"><ele>257.0</ele><time>2026-03-29T14:18:44.812Z</time></trkpt><trkpt lat="44.6534156" lon="7.9928869"><ele>257.66666666666663</ele><time>2026-03-29T14:18:47.816Z</time></trkpt><trkpt lat="44.6533778" lon="7.9929998"><ele>258.3333333333333</ele><time>2026-03-29T14:18:51.778Z</time></trkpt><trkpt lat="44.6533479" lon="7.9931192"><ele>259.0</ele><time>2026-03-29T14:18:54.801Z</time></trkpt><trkpt lat="44.6533156" lon="7.993224"><ele>259.0</ele><time>2026-03-29T14:18:57.829Z</time></trkpt><trkpt lat="44.6532976" lon="7.9933257"><ele>259.0</ele><time>2026-03-29T14:19:00.79Z</time></trkpt><trkpt lat="44.653287" lon="7.9934157"><ele>259.0</ele><time>2026-03-29T14:19:02.767Z</time></trkpt><trkpt lat="44.65326" lon="7.9935328"><ele>259.0</ele><time>2026-03-29T14:19:05.77Z</time></trkpt><trkpt lat="44.6532198" lon="7.993643"><ele>259.0</ele><time>2026-03-29T14:19:08.798Z</time></trkpt><trkpt lat="44.6531847" lon="7.993757"><ele>259.0</ele><time>2026-03-29T14:19:11.723Z</time></trkpt><trkpt lat="44.6531476" lon="7.9938367"><ele>259.8333333333333</ele><time>2026-03-29T14:19:13.809Z</time></trkpt><trkpt lat="44.6531292" lon="7.9939372"><ele>260.66666666666663</ele><time>2026-03-29T14:19:15.802Z</time></trkpt><trkpt lat="44.6531264" lon="7.9940302"><ele>261.5</ele><time>2026-03-29T14:19:17.803Z</time></trkpt><trkpt lat="44.6531127" lon="7.9941304"><ele>262.3333333333333</ele><time>2026-03-29T14:19:20.029Z</time></trkpt><trkpt lat="44.6530881" lon="7.9942557"><ele>263.1666666666667</ele><time>2026-03-29T14:19:22.802Z</time></trkpt><trkpt lat="44.6530666" lon="7.9943523"><ele>264.0</ele><time>2026-03-29T14:19:24.779Z</time></trkpt><trkpt lat="44.6530444" lon="7.9944582"><ele>263.57142857142856</ele><time>2026-03-29T14:19:26.841Z</time></trkpt><trkpt lat="44.6530219" lon="7.9945546"><ele>263.14285714285717</ele><time>2026-03-29T14:19:28.803Z</time></trkpt><trkpt lat="44.6530001" lon="7.9946444"><ele>262.7142857142857</ele><time>2026-03-29T14:19:30.834Z</time></trkpt><trkpt lat="44.652975" lon="7.9947561"><ele>262.2857142857143</ele><time>2026-03-29T14:19:34.052Z</time></trkpt><trkpt lat="44.6529582" lon="7.994848"><ele>261.85714285714283</ele><time>2026-03-29T14:19:36.821Z</time></trkpt><trkpt lat="44.6529395" lon="7.9949464"><ele>261.42857142857144</ele><time>2026-03-29T14:19:40.851Z</time></trkpt><trkpt lat="44.6529575" lon="7.9950384"><ele>261.0</ele><time>2026-03-29T14:19:45.866Z</time></trkpt><trkpt lat="44.652979" lon="7.9951319"><ele>261.0</ele><time>2026-03-29T14:19:49.848Z</time></trkpt><trkpt lat="44.652985" lon="7.9952357"><ele>261.0</ele><time>2026-03-29T14:20:18.812Z</time></trkpt><trkpt lat="44.6530526" lon="7.9952011"><ele>261.0</ele><time>2026-03-29T14:22:23.822Z</time></trkpt><trkpt lat="44.6530323" lon="7.9950998"><ele>261.0</ele><time>2026-03-29T14:22:26.826Z</time></trkpt><trkpt lat="44.6529845" lon="7.9950403"><ele>261.0</ele><time>2026-03-29T14:22:28.829Z</time></trkpt><trkpt lat="44.6529319" lon="7.9949679"><ele>261.0</ele><time>2026-03-29T14:22:31.873Z</time></trkpt><trkpt lat="44.6528667" lon="7.9949195"><ele>261.0</ele><time>2026-03-29T14:22:37.857Z</time></trkpt><trkpt lat="44.6529328" lon="7.9949132"><ele>262.14285714285717</ele><time>2026-03-29T14:29:14.907Z</time></trkpt><trkpt lat="44.6529903" lon="7.9948486"><ele>263.2857142857143</ele><time>2026-03-29T14:29:20.958Z</time></trkpt><trkpt lat="44.65302" lon="7.9947498"><ele>264.42857142857144</ele><time>2026-03-29T14:29:26.562Z</time></trkpt><trkpt lat="44.6530473" lon="7.9946564"><ele>265.57142857142856</ele><time>2026-03-29T14:29:32.819Z</time></trkpt><trkpt lat="44.6531215" lon="7.9946427"><ele>266.7142857142857</ele><time>2026-03-29T14:29:39.897Z</time></trkpt><trkpt lat="44.6531791" lon="7.9946868"><ele>267.8571428571429</ele><time>2026-03-29T14:29:44.859Z</time></trkpt><trkpt lat="44.6532374" lon="7.9947214"><ele>269.0</ele><time>2026-03-29T14:29:50.821Z</time></trkpt><trkpt lat="44.6532984" lon="7.9947574"><ele>269.0</ele><time>2026-03-29T14:30:02.786Z</time></trkpt><trkpt lat="44.6532333" lon="7.9947774"><ele>269.0</ele><time>2026-03-29T14:30:49.788Z</time></trkpt><trkpt lat="44.653165" lon="7.9948163"><ele>269.0</ele><time>2026-03-29T14:31:06.459Z</time></trkpt><trkpt lat="44.6530977" lon="7.9947993"><ele>269.0</ele><time>2026-03-29T14:31:12.678Z</time></trkpt><trkpt lat="44.6531373" lon="7.9948775"><ele>269.0</ele><time>2026-03-29T14:31:25.738Z</time></trkpt><trkpt lat="44.6532039" lon="7.9948581"><ele>269.0</ele><time>2026-03-29T14:32:12.822Z</time></trkpt><trkpt lat="44.6532763" lon="7.9948829"><ele>269.0</ele><time>2026-03-29T14:32:16.037Z</time></trkpt><trkpt lat="44.6532939" lon="7.9947943"><ele>269.0</ele><time>2026-03-29T14:33:02.83Z</time></trkpt><trkpt lat="44.6532365" lon="7.9947412"><ele>269.0</ele><time>2026-03-29T14:33:56.941Z</time></trkpt><trkpt lat="44.653172" lon="7.9947143"><ele>269.0</ele><time>2026-03-29T14:34:02.768Z</time></trkpt><trkpt lat="44.6531024" lon="7.9946998"><ele>269.0</ele><time>2026-03-29T14:34:08.793Z</time></trkpt><trkpt lat="44.6530279" lon="7.9947002"><ele>269.0</ele><time>2026-03-29T14:34:14.777Z</time></trkpt><trkpt lat="44.6530079" lon="7.9947846"><ele>269.0</ele><time>2026-03-29T14:34:19.8Z</time></trkpt><trkpt lat="44.6529769" lon="7.9948667"><ele>269.0</ele><time>2026-03-29T14:34:24.827Z</time></trkpt><trkpt lat="44.6529218" lon="7.9948204"><ele>269.0</ele><time>2026-03-29T14:34:29.836Z</time></trkpt><trkpt lat="44.6529334" lon="7.9947238"><ele>269.0</ele><time>2026-03-29T14:34:32.854Z</time></trkpt><trkpt lat="44.6529516" lon="7.9946056"><ele>269.0</ele><time>2026-03-29T14:34:35.852Z</time></trkpt><trkpt lat="44.6529631" lon="7.9944789"><ele>269.0</ele><time>2026-03-29T14:34:37.846Z</time></trkpt><trkpt lat="44.6529841" lon="7.9943761"><ele>269.0</ele><time>2026-03-29T14:34:39.12Z</time></trkpt><trkpt lat="44.6530221" lon="7.9942599"><ele>269.0</ele><time>2026-03-29T14:34:40.831Z</time></trkpt><trkpt lat="44.6530883" lon="7.9941553"><ele>268.0</ele><time>2026-03-29T14:34:44.87Z</time></trkpt><trkpt lat="44.6531433" lon="7.9940135"><ele>267.0</ele><time>2026-03-29T14:34:46.864Z</time></trkpt><trkpt lat="44.6531559" lon="7.9939246"><ele>266.0</ele><time>2026-03-29T14:34:47.832Z</time></trkpt><trkpt lat="44.6531844" lon="7.9937492"><ele>265.0</ele><time>2026-03-29T14:34:49.812Z</time></trkpt><trkpt lat="44.6532201" lon="7.9936157"><ele>264.0</ele><time>2026-03-29T14:34:52.024Z</time></trkpt><trkpt lat="44.6532705" lon="7.9935605"><ele>264.0</ele><time>2026-03-29T14:34:53.727Z</time></trkpt><trkpt lat="44.6532893" lon="7.993401"><ele>264.0</ele><time>2026-03-29T14:34:57.731Z</time></trkpt><trkpt lat="44.6533222" lon="7.9933145"><ele>264.0</ele><time>2026-03-29T14:35:01.831Z</time></trkpt><trkpt lat="44.6533549" lon="7.9931965"><ele>264.0</ele><time>2026-03-29T14:36:27.845Z</time></trkpt><trkpt lat="44.6533828" lon="7.9930824"><ele>264.0</ele><time>2026-03-29T14:36:28.837Z</time></trkpt><trkpt lat="44.6534133" lon="7.9929578"><ele>263.0</ele><time>2026-03-29T14:36:30.805Z</time></trkpt><trkpt lat="44.6534491" lon="7.9928253"><ele>262.0</ele><time>2026-03-29T14:36:34.825Z</time></trkpt><trkpt lat="44.6535037" lon="7.9926669"><ele>261.0</ele><time>2026-03-29T14:36:36.867Z</time></trkpt><trkpt lat="44.6535661" lon="7.9925646"><ele>260.0</ele><time>2026-03-29T14:36:38.825Z</time></trkpt><trkpt lat="44.6536014" lon="7.9924504"><ele>259.0</ele><time>2026-03-29T14:36:40.851Z</time></trkpt><trkpt lat="44.6536291" lon="7.9923286"><ele>258.2</ele><time>2026-03-29T14:36:42.841Z</time></trkpt><trkpt lat="44.6536312" lon="7.9922254"><ele>257.4</ele><time>2026-03-29T14:36:44.877Z</time></trkpt><trkpt lat="44.6535344" lon="7.9921843"><ele>256.6</ele><time>2026-03-29T14:36:47.832Z</time></trkpt><trkpt lat="44.6534186" lon="7.9921387"><ele>255.8</ele><time>2026-03-29T14:36:49.88Z</time></trkpt><trkpt lat="44.6532954" lon="7.9922092"><ele>255.0</ele><time>2026-03-29T14:36:51.933Z</time></trkpt><trkpt lat="44.6532463" lon="7.9922749"><ele>255.0</ele><time>2026-03-29T14:36:52.835Z</time></trkpt><trkpt lat="44.6532039" lon="7.9923559"><ele>255.0</ele><time>2026-03-29T14:36:53.826Z</time></trkpt><trkpt lat="44.6531609" lon="7.9924398"><ele>255.0</ele><time>2026-03-29T14:36:54.843Z</time></trkpt><trkpt lat="44.6531221" lon="7.9925236"><ele>255.0</ele><time>2026-03-29T14:36:55.805Z</time></trkpt><trkpt lat="44.6530777" lon="7.9926151"><ele>255.0</ele><time>2026-03-29T14:36:56.828Z</time></trkpt><trkpt lat="44.6530368" lon="7.9927057"><ele>255.0</ele><time>2026-03-29T14:36:57.837Z</time></trkpt><trkpt lat="44.652987" lon="7.9928022"><ele>255.66666666666666</ele><time>2026-03-29T14:36:58.837Z</time></trkpt><trkpt lat="44.6529427" lon="7.9928899"><ele>256.3333333333333</ele><time>2026-03-29T14:36:59.837Z</time></trkpt><trkpt lat="44.652907" lon="7.9929672"><ele>257.0</ele><time>2026-03-29T14:37:00.845Z</time></trkpt><trkpt lat="44.6528687" lon="7.9930411"><ele>257.66666666666663</ele><time>2026-03-29T14:37:01.83Z</time></trkpt><trkpt lat="44.6527933" lon="7.9931222"><ele>258.3333333333333</ele><time>2026-03-29T14:37:03.803Z</time></trkpt><trkpt lat="44.6527194" lon="7.9931057"><ele>259.0</ele><time>2026-03-29T14:37:05.841Z</time></trkpt><trkpt lat="44.6526526" lon="7.9929903"><ele>256.8333333333333</ele><time>2026-03-29T14:37:07.828Z</time></trkpt><trkpt lat="44.6526326" lon="7.9928783"><ele>254.66666666666666</ele><time>2026-03-29T14:37:08.842Z</time></trkpt><trkpt lat="44.652645" lon="7.9927706"><ele>252.5</ele><time>2026-03-29T14:37:09.856Z</time></trkpt><trkpt lat="44.6526659" lon="7.992671"><ele>250.33333333333331</ele><time>2026-03-29T14:37:10.838Z</time></trkpt><trkpt lat="44.6526907" lon="7.992567"><ele>248.16666666666666</ele><time>2026-03-29T14:37:11.827Z</time></trkpt><trkpt lat="44.6527109" lon="7.9924573"><ele>246.0</ele><time>2026-03-29T14:37:12.846Z</time></trkpt><trkpt lat="44.6527286" lon="7.9923505"><ele>246.33333333333334</ele><time>2026-03-29T14:37:13.839Z</time></trkpt><trkpt lat="44.6527477" lon="7.9922419"><ele>246.66666666666669</ele><time>2026-03-29T14:37:14.849Z</time></trkpt><trkpt lat="44.6527666" lon="7.9921257"><ele>247.0</ele><time>2026-03-29T14:37:15.859Z</time></trkpt><trkpt lat="44.6527856" lon="7.992004"><ele>247.33333333333334</ele><time>2026-03-29T14:37:16.859Z</time></trkpt><trkpt lat="44.6528098" lon="7.9918801"><ele>247.66666666666669</ele><time>2026-03-29T14:37:17.85Z</time></trkpt><trkpt lat="44.6528319" lon="7.9917527"><ele>248.0</ele><time>2026-03-29T14:37:18.809Z</time></trkpt><trkpt lat="44.6528539" lon="7.9916082"><ele>248.0</ele><time>2026-03-29T14:37:19.875Z</time></trkpt><trkpt lat="44.6528721" lon="7.99148"><ele>248.0</ele><time>2026-03-29T14:37:20.824Z</time></trkpt><trkpt lat="44.6528925" lon="7.9913431"><ele>248.0</ele><time>2026-03-29T14:37:21.832Z</time></trkpt><trkpt lat="44.6529142" lon="7.9912056"><ele>248.0</ele><time>2026-03-29T14:37:22.824Z</time></trkpt><trkpt lat="44.6529381" lon="7.9910686"><ele>248.0</ele><time>2026-03-29T14:37:23.805Z</time></trkpt><trkpt lat="44.652961" lon="7.9909253"><ele>245.75</ele><time>2026-03-29T14:37:24.801Z</time></trkpt><trkpt lat="44.6529823" lon="7.9907748"><ele>243.5</ele><time>2026-03-29T14:37:25.804Z</time></trkpt><trkpt lat="44.653007" lon="7.990615"><ele>241.25</ele><time>2026-03-29T14:37:26.803Z</time></trkpt><trkpt lat="44.6530342" lon="7.990456"><ele>239.0</ele><time>2026-03-29T14:37:27.792Z</time></trkpt><trkpt lat="44.6530673" lon="7.9902978"><ele>239.0</ele><time>2026-03-29T14:37:28.796Z</time></trkpt><trkpt lat="44.6530971" lon="7.9901397"><ele>239.0</ele><time>2026-03-29T14:37:29.791Z</time></trkpt><trkpt lat="44.6531303" lon="7.9899797"><ele>239.0</ele><time>2026-03-29T14:37:30.827Z</time></trkpt><trkpt lat="44.6531574" lon="7.989826"><ele>239.0</ele><time>2026-03-29T14:37:31.814Z</time></trkpt><trkpt lat="44.6531863" lon="7.9896589"><ele>237.75</ele><time>2026-03-29T14:37:32.91Z</time></trkpt><trkpt lat="44.6532113" lon="7.9895073"><ele>236.5</ele><time>2026-03-29T14:37:33.927Z</time></trkpt><trkpt lat="44.6532285" lon="7.9892231"><ele>235.25</ele><time>2026-03-29T14:37:35.799Z</time></trkpt><trkpt lat="44.6532117" lon="7.9890695"><ele>234.0</ele><time>2026-03-29T14:37:36.84Z</time></trkpt><trkpt lat="44.6531888" lon="7.988919"><ele>233.0</ele><time>2026-03-29T14:37:37.814Z</time></trkpt><trkpt lat="44.6531525" lon="7.9887883"><ele>231.99999999999997</ele><time>2026-03-29T14:37:38.797Z</time></trkpt><trkpt lat="44.6531111" lon="7.9886769"><ele>230.99999999999997</ele><time>2026-03-29T14:37:39.797Z</time></trkpt><trkpt lat="44.6530459" lon="7.9885716"><ele>230.0</ele><time>2026-03-29T14:37:40.781Z</time></trkpt><trkpt lat="44.6529859" lon="7.9884414"><ele>229.0</ele><time>2026-03-29T14:37:41.79Z</time></trkpt><trkpt lat="44.6529367" lon="7.9882999"><ele>228.49999999999997</ele><time>2026-03-29T14:37:42.791Z</time></trkpt><trkpt lat="44.6529055" lon="7.9881629"><ele>228.0</ele><time>2026-03-29T14:37:43.801Z</time></trkpt><trkpt lat="44.6528894" lon="7.988011"><ele>227.5</ele><time>2026-03-29T14:37:44.893Z</time></trkpt><trkpt lat="44.6528958" lon="7.9879019"><ele>227.0</ele><time>2026-03-29T14:37:45.779Z</time></trkpt><trkpt lat="44.6529151" lon="7.9878001"><ele>226.49999999999997</ele><time>2026-03-29T14:37:46.801Z</time></trkpt><trkpt lat="44.6529495" lon="7.9877051"><ele>226.0</ele><time>2026-03-29T14:37:47.8Z</time></trkpt><trkpt lat="44.6529921" lon="7.9875994"><ele>225.49999999999997</ele><time>2026-03-29T14:37:48.792Z</time></trkpt><trkpt lat="44.6530413" lon="7.9874865"><ele>225.0</ele><time>2026-03-29T14:37:49.836Z</time></trkpt><trkpt lat="44.6530903" lon="7.9873872"><ele>224.5</ele><time>2026-03-29T14:37:50.815Z</time></trkpt><trkpt lat="44.6531355" lon="7.9872917"><ele>224.0</ele><time>2026-03-29T14:37:51.79Z</time></trkpt><trkpt lat="44.6531786" lon="7.9871952"><ele>223.49999999999997</ele><time>2026-03-29T14:37:52.784Z</time></trkpt><trkpt lat="44.653231" lon="7.9870999"><ele>223.0</ele><time>2026-03-29T14:37:53.784Z</time></trkpt><trkpt lat="44.6532882" lon="7.9870124"><ele>222.99999999999997</ele><time>2026-03-29T14:37:54.825Z</time></trkpt><trkpt lat="44.6533371" lon="7.9869287"><ele>223.0</ele><time>2026-03-29T14:37:55.8Z</time></trkpt><trkpt lat="44.6533738" lon="7.9868381"><ele>223.0</ele><time>2026-03-29T14:37:56.806Z</time></trkpt><trkpt lat="44.653398" lon="7.9867475"><ele>223.0</ele><time>2026-03-29T14:37:57.81Z</time></trkpt><trkpt lat="44.653439" lon="7.98658"><ele>222.99999999999997</ele><time>2026-03-29T14:37:59.829Z</time></trkpt><trkpt lat="44.6534516" lon="7.986491"><ele>223.0</ele><time>2026-03-29T14:38:00.819Z</time></trkpt><trkpt lat="44.6534607" lon="7.9864033"><ele>222.42857142857142</ele><time>2026-03-29T14:38:01.826Z</time></trkpt><trkpt lat="44.6534669" lon="7.9863148"><ele>221.85714285714283</ele><time>2026-03-29T14:38:02.833Z</time></trkpt><trkpt lat="44.6534737" lon="7.9862261"><ele>221.28571428571428</ele><time>2026-03-29T14:38:03.829Z</time></trkpt><trkpt lat="44.6534836" lon="7.9861379"><ele>220.71428571428572</ele><time>2026-03-29T14:38:04.805Z</time></trkpt><trkpt lat="44.6534949" lon="7.986042"><ele>220.14285714285714</ele><time>2026-03-29T14:38:05.799Z</time></trkpt><trkpt lat="44.6535091" lon="7.9859544"><ele>219.57142857142858</ele><time>2026-03-29T14:38:06.839Z</time></trkpt><trkpt lat="44.6535438" lon="7.9858025"><ele>219.0</ele><time>2026-03-29T14:38:08.8Z</time></trkpt><trkpt lat="44.6535695" lon="7.9857191"><ele>219.66666666666666</ele><time>2026-03-29T14:38:09.802Z</time></trkpt><trkpt lat="44.6535961" lon="7.9856276"><ele>220.33333333333331</ele><time>2026-03-29T14:38:10.811Z</time></trkpt><trkpt lat="44.653625" lon="7.985529"><ele>221.0</ele><time>2026-03-29T14:38:11.831Z</time></trkpt><trkpt lat="44.653654" lon="7.9854268"><ele>221.66666666666666</ele><time>2026-03-29T14:38:12.837Z</time></trkpt><trkpt lat="44.6536835" lon="7.9853203"><ele>222.33333333333331</ele><time>2026-03-29T14:38:13.853Z</time></trkpt><trkpt lat="44.6537092" lon="7.9852185"><ele>223.0</ele><time>2026-03-29T14:38:14.824Z</time></trkpt><trkpt lat="44.6537321" lon="7.985122"><ele>222.99999999999997</ele><time>2026-03-29T14:38:15.826Z</time></trkpt><trkpt lat="44.6537575" lon="7.9850318"><ele>223.0</ele><time>2026-03-29T14:38:16.875Z</time></trkpt><trkpt lat="44.6537966" lon="7.9849316"><ele>223.0</ele><time>2026-03-29T14:38:18.862Z</time></trkpt><trkpt lat="44.6538368" lon="7.9848439"><ele>223.0</ele><time>2026-03-29T14:38:24.869Z</time></trkpt><trkpt lat="44.6538125" lon="7.9847555"><ele>222.99999999999997</ele><time>2026-03-29T14:38:38.86Z</time></trkpt><trkpt lat="44.6538446" lon="7.9846352"><ele>223.0</ele><time>2026-03-29T14:38:41.834Z</time></trkpt><trkpt lat="44.6538707" lon="7.984519"><ele>221.99999999999997</ele><time>2026-03-29T14:38:43.851Z</time></trkpt><trkpt lat="44.6539072" lon="7.9843852"><ele>221.0</ele><time>2026-03-29T14:38:45.835Z</time></trkpt><trkpt lat="44.6539427" lon="7.9842754"><ele>220.0</ele><time>2026-03-29T14:38:47.825Z</time></trkpt><trkpt lat="44.6539569" lon="7.9841884"><ele>219.0</ele><time>2026-03-29T14:39:18.806Z</time></trkpt><trkpt lat="44.6539793" lon="7.9840646"><ele>217.99999999999997</ele><time>2026-03-29T14:39:22.948Z</time></trkpt><trkpt lat="44.6540082" lon="7.9839857"><ele>217.0</ele><time>2026-03-29T14:39:24.849Z</time></trkpt><trkpt lat="44.6540438" lon="7.9838886"><ele>216.33333333333331</ele><time>2026-03-29T14:39:26.845Z</time></trkpt><trkpt lat="44.6540732" lon="7.9837754"><ele>215.66666666666666</ele><time>2026-03-29T14:39:28.839Z</time></trkpt><trkpt lat="44.6541036" lon="7.9836493"><ele>215.0</ele><time>2026-03-29T14:39:30.846Z</time></trkpt><trkpt lat="44.6541304" lon="7.983528"><ele>214.33333333333331</ele><time>2026-03-29T14:39:32.821Z</time></trkpt><trkpt lat="44.6541588" lon="7.9834134"><ele>213.66666666666666</ele><time>2026-03-29T14:39:34.825Z</time></trkpt><trkpt lat="44.6541888" lon="7.9833068"><ele>213.0</ele><time>2026-03-29T14:39:36.824Z</time></trkpt><trkpt lat="44.6542152" lon="7.9831878"><ele>211.60000000000002</ele><time>2026-03-29T14:39:38.786Z</time></trkpt><trkpt lat="44.6542434" lon="7.9830705"><ele>210.20000000000002</ele><time>2026-03-29T14:39:40.798Z</time></trkpt><trkpt lat="44.6542682" lon="7.982943"><ele>208.8</ele><time>2026-03-29T14:39:42.823Z</time></trkpt><trkpt lat="44.654303" lon="7.9827966"><ele>207.4</ele><time>2026-03-29T14:39:44.841Z</time></trkpt><trkpt lat="44.6543265" lon="7.9827122"><ele>206.0</ele><time>2026-03-29T14:39:45.88Z</time></trkpt><trkpt lat="44.6543805" lon="7.9825445"><ele>205.83333333333334</ele><time>2026-03-29T14:39:47.81Z</time></trkpt><trkpt lat="44.6544087" lon="7.9824487"><ele>205.66666666666669</ele><time>2026-03-29T14:39:48.809Z</time></trkpt><trkpt lat="44.6544343" lon="7.9823553"><ele>205.5</ele><time>2026-03-29T14:39:49.766Z</time></trkpt><trkpt lat="44.6544607" lon="7.982249"><ele>205.33333333333331</ele><time>2026-03-29T14:39:50.803Z</time></trkpt><trkpt lat="44.6544885" lon="7.9821493"><ele>205.16666666666666</ele><time>2026-03-29T14:39:51.772Z</time></trkpt><trkpt lat="44.6545349" lon="7.9820519"><ele>205.0</ele><time>2026-03-29T14:39:52.806Z</time></trkpt><trkpt lat="44.654584" lon="7.9819637"><ele>204.99999999999997</ele><time>2026-03-29T14:39:53.772Z</time></trkpt><trkpt lat="44.6546406" lon="7.9818606"><ele>205.0</ele><time>2026-03-29T14:39:54.893Z</time></trkpt><trkpt lat="44.6546857" lon="7.9817751"><ele>205.0</ele><time>2026-03-29T14:39:55.805Z</time></trkpt><trkpt lat="44.6547343" lon="7.9816763"><ele>205.0</ele><time>2026-03-29T14:39:56.831Z</time></trkpt><trkpt lat="44.6547806" lon="7.9815773"><ele>204.99999999999997</ele><time>2026-03-29T14:39:57.848Z</time></trkpt><trkpt lat="44.6548239" lon="7.9814818"><ele>205.0</ele><time>2026-03-29T14:39:58.836Z</time></trkpt><trkpt lat="44.6548685" lon="7.9813862"><ele>203.66666666666666</ele><time>2026-03-29T14:39:59.833Z</time></trkpt><trkpt lat="44.654917" lon="7.9812874"><ele>202.33333333333331</ele><time>2026-03-29T14:40:00.864Z</time></trkpt><trkpt lat="44.6549582" lon="7.9811994"><ele>201.0</ele><time>2026-03-29T14:40:01.797Z</time></trkpt><trkpt lat="44.6550031" lon="7.9811021"><ele>199.66666666666669</ele><time>2026-03-29T14:40:02.835Z</time></trkpt><trkpt lat="44.6550501" lon="7.9810055"><ele>198.33333333333334</ele><time>2026-03-29T14:40:03.869Z</time></trkpt><trkpt lat="44.6550958" lon="7.9809138"><ele>197.0</ele><time>2026-03-29T14:40:04.841Z</time></trkpt><trkpt lat="44.6551393" lon="7.9808238"><ele>196.66666666666669</ele><time>2026-03-29T14:40:05.798Z</time></trkpt><trkpt lat="44.6551824" lon="7.9807255"><ele>196.33333333333334</ele><time>2026-03-29T14:40:06.831Z</time></trkpt><trkpt lat="44.6552191" lon="7.9806293"><ele>196.0</ele><time>2026-03-29T14:40:07.849Z</time></trkpt><trkpt lat="44.655253" lon="7.9805468"><ele>195.66666666666669</ele><time>2026-03-29T14:40:08.87Z</time></trkpt><trkpt lat="44.65531" lon="7.980409"><ele>195.33333333333334</ele><time>2026-03-29T14:40:10.934Z</time></trkpt><trkpt lat="44.6553621" lon="7.9803257"><ele>195.0</ele><time>2026-03-29T14:40:13.883Z</time></trkpt><trkpt lat="44.6554409" lon="7.980368"><ele>195.0</ele><time>2026-03-29T14:40:16.953Z</time></trkpt><trkpt lat="44.6555303" lon="7.9804533"><ele>195.0</ele><time>2026-03-29T14:40:20.832Z</time></trkpt><trkpt lat="44.6555884" lon="7.9804906"><ele>195.0</ele><time>2026-03-29T14:40:22.805Z</time></trkpt><trkpt lat="44.6556732" lon="7.9805508"><ele>195.0</ele><time>2026-03-29T14:40:25.829Z</time></trkpt><trkpt lat="44.6557448" lon="7.980591"><ele>195.0</ele><time>2026-03-29T14:40:27.828Z</time></trkpt><trkpt lat="44.655809" lon="7.9806217"><ele>195.0</ele><time>2026-03-29T14:40:31.768Z</time></trkpt><trkpt lat="44.6558785" lon="7.9806287"><ele>195.0</ele><time>2026-03-29T14:41:15.777Z</time></trkpt><trkpt lat="44.655927" lon="7.9805585"><ele>195.0</ele><time>2026-03-29T14:41:50.788Z</time></trkpt><trkpt lat="44.6559782" lon="7.9806323"><ele>195.0</ele><time>2026-03-29T14:42:13.759Z</time></trkpt><trkpt lat="44.6559146" lon="7.9806363"><ele>195.0</ele><time>2026-03-29T14:49:12.708Z</time></trkpt><trkpt lat="44.6559782" lon="7.9806443"><ele>195.0</ele><time>2026-03-29T14:53:25.746Z</time></trkpt><trkpt lat="44.6560355" lon="7.9805822"><ele>195.0</ele><time>2026-03-29T14:57:11.755Z</time></trkpt><trkpt lat="44.6559466" lon="7.9806227"><ele>195.0</ele><time>2026-03-29T14:59:12.771Z</time></trkpt><trkpt lat="44.6558849" lon="7.9805305"><ele>195.0</ele><time>2026-03-29T15:00:43.879Z</time></trkpt><trkpt lat="44.6558176" lon="7.980556"><ele>195.0</ele><time>2026-03-29T15:00:46.835Z</time></trkpt><trkpt lat="44.6557382" lon="7.9806152"><ele>195.0</ele><time>2026-03-29T15:00:49.824Z</time></trkpt><trkpt lat="44.6556792" lon="7.9806545"><ele>195.0</ele><time>2026-03-29T15:00:51.926Z</time></trkpt><trkpt lat="44.6555706" lon="7.9804897"><ele>195.0</ele><time>2026-03-29T15:00:55.868Z</time></trkpt><trkpt lat="44.6555087" lon="7.9804089"><ele>195.0</ele><time>2026-03-29T15:00:57.958Z</time></trkpt><trkpt lat="44.6554466" lon="7.980343"><ele>195.0</ele><time>2026-03-29T15:01:01.858Z</time></trkpt><trkpt lat="44.6553778" lon="7.9802914"><ele>195.0</ele><time>2026-03-29T15:01:05.072Z</time></trkpt><trkpt lat="44.6553027" lon="7.9802455"><ele>195.0</ele><time>2026-03-29T15:01:07.894Z</time></trkpt><trkpt lat="44.6552362" lon="7.9801833"><ele>195.0</ele><time>2026-03-29T15:01:10.865Z</time></trkpt><trkpt lat="44.6551574" lon="7.9801322"><ele>195.0</ele><time>2026-03-29T15:01:13.763Z</time></trkpt><trkpt lat="44.6550893" lon="7.9800864"><ele>194.6</ele><time>2026-03-29T15:01:15.882Z</time></trkpt><trkpt lat="44.6550161" lon="7.9800376"><ele>194.2</ele><time>2026-03-29T15:01:17.901Z</time></trkpt><trkpt lat="44.6549267" lon="7.9800005"><ele>193.8</ele><time>2026-03-29T15:01:19.857Z</time></trkpt><trkpt lat="44.6548328" lon="7.9799731"><ele>193.4</ele><time>2026-03-29T15:01:21.828Z</time></trkpt><trkpt lat="44.6547571" lon="7.9799754"><ele>193.0</ele><time>2026-03-29T15:01:23.892Z</time></trkpt><trkpt lat="44.6546333" lon="7.9799171"><ele>192.8</ele><time>2026-03-29T15:01:26.856Z</time></trkpt><trkpt lat="44.6545225" lon="7.9798629"><ele>192.60000000000002</ele><time>2026-03-29T15:01:28.861Z</time></trkpt><trkpt lat="44.6544274" lon="7.9798126"><ele>192.39999999999998</ele><time>2026-03-29T15:01:30.863Z</time></trkpt><trkpt lat="44.6543379" lon="7.9797741"><ele>192.2</ele><time>2026-03-29T15:01:32.831Z</time></trkpt><trkpt lat="44.6542576" lon="7.979724"><ele>192.0</ele><time>2026-03-29T15:01:34.981Z</time></trkpt><trkpt lat="44.6541924" lon="7.9797323"><ele>192.39999999999998</ele><time>2026-03-29T15:01:37.873Z</time></trkpt><trkpt lat="44.6541085" lon="7.979676"><ele>192.79999999999998</ele><time>2026-03-29T15:01:39.883Z</time></trkpt><trkpt lat="44.6540463" lon="7.9796435"><ele>193.2</ele><time>2026-03-29T15:01:40.868Z</time></trkpt><trkpt lat="44.6539417" lon="7.9795933"><ele>193.6</ele><time>2026-03-29T15:01:42.848Z</time></trkpt><trkpt lat="44.6538509" lon="7.9795511"><ele>194.0</ele><time>2026-03-29T15:01:44.884Z</time></trkpt><trkpt lat="44.6537739" lon="7.9794916"><ele>194.0</ele><time>2026-03-29T15:01:46.826Z</time></trkpt><trkpt lat="44.6536902" lon="7.9794538"><ele>194.0</ele><time>2026-03-29T15:01:48.848Z</time></trkpt><trkpt lat="44.6536099" lon="7.9794357"><ele>194.0</ele><time>2026-03-29T15:01:50.859Z</time></trkpt><trkpt lat="44.6535091" lon="7.9793705"><ele>194.0</ele><time>2026-03-29T15:01:52.855Z</time></trkpt><trkpt lat="44.6534206" lon="7.9793289"><ele>194.0</ele><time>2026-03-29T15:01:54.835Z</time></trkpt><trkpt lat="44.6533382" lon="7.9792861"><ele>194.0</ele><time>2026-03-29T15:01:56.87Z</time></trkpt><trkpt lat="44.6532081" lon="7.979245"><ele>194.0</ele><time>2026-03-29T15:01:59.849Z</time></trkpt><trkpt lat="44.6531016" lon="7.9791832"><ele>194.0</ele><time>2026-03-29T15:02:01.848Z</time></trkpt><trkpt lat="44.6529898" lon="7.9791226"><ele>194.0</ele><time>2026-03-29T15:02:03.886Z</time></trkpt><trkpt lat="44.6528958" lon="7.9790734"><ele>194.0</ele><time>2026-03-29T15:02:05.858Z</time></trkpt><trkpt lat="44.6528088" lon="7.9790305"><ele>194.0</ele><time>2026-03-29T15:02:07.84Z</time></trkpt><trkpt lat="44.6527125" lon="7.9789968"><ele>194.0</ele><time>2026-03-29T15:02:09.881Z</time></trkpt><trkpt lat="44.6526164" lon="7.9789569"><ele>194.0</ele><time>2026-03-29T15:02:11.84Z</time></trkpt><trkpt lat="44.6525329" lon="7.9789187"><ele>194.0</ele><time>2026-03-29T15:02:13.863Z</time></trkpt><trkpt lat="44.6524522" lon="7.9788863"><ele>194.39999999999998</ele><time>2026-03-29T15:02:15.919Z</time></trkpt><trkpt lat="44.6523563" lon="7.9788794"><ele>194.8</ele><time>2026-03-29T15:02:17.921Z</time></trkpt><trkpt lat="44.652247" lon="7.9788776"><ele>195.2</ele><time>2026-03-29T15:02:19.902Z</time></trkpt><trkpt lat="44.6521657" lon="7.9788528"><ele>195.60000000000002</ele><time>2026-03-29T15:02:21.867Z</time></trkpt><trkpt lat="44.6520732" lon="7.9788629"><ele>196.0</ele><time>2026-03-29T15:02:23.847Z</time></trkpt><trkpt lat="44.6519891" lon="7.9788876"><ele>195.60000000000002</ele><time>2026-03-29T15:02:25.833Z</time></trkpt><trkpt lat="44.6518945" lon="7.9789246"><ele>195.2</ele><time>2026-03-29T15:02:27.986Z</time></trkpt><trkpt lat="44.6518349" lon="7.978968"><ele>194.8</ele><time>2026-03-29T15:02:29.86Z</time></trkpt><trkpt lat="44.6517569" lon="7.9790285"><ele>194.39999999999998</ele><time>2026-03-29T15:02:31.862Z</time></trkpt><trkpt lat="44.651617" lon="7.9791004"><ele>194.0</ele><time>2026-03-29T15:02:34.833Z</time></trkpt><trkpt lat="44.6515117" lon="7.9791567"><ele>194.2</ele><time>2026-03-29T15:02:36.871Z</time></trkpt><trkpt lat="44.6514062" lon="7.9792188"><ele>194.39999999999998</ele><time>2026-03-29T15:02:38.88Z</time></trkpt><trkpt lat="44.6513111" lon="7.9792731"><ele>194.6</ele><time>2026-03-29T15:02:40.877Z</time></trkpt><trkpt lat="44.6512167" lon="7.9792977"><ele>194.8</ele><time>2026-03-29T15:02:42.895Z</time></trkpt><trkpt lat="44.6511373" lon="7.9793365"><ele>195.0</ele><time>2026-03-29T15:02:44.882Z</time></trkpt><trkpt lat="44.6510462" lon="7.9793715"><ele>195.4</ele><time>2026-03-29T15:02:46.872Z</time></trkpt><trkpt lat="44.6509371" lon="7.9793949"><ele>195.8</ele><time>2026-03-29T15:02:48.896Z</time></trkpt><trkpt lat="44.6508403" lon="7.9794274"><ele>196.2</ele><time>2026-03-29T15:02:50.912Z</time></trkpt><trkpt lat="44.6507416" lon="7.9794304"><ele>196.6</ele><time>2026-03-29T15:02:52.856Z</time></trkpt><trkpt lat="44.6506333" lon="7.9794214"><ele>197.0</ele><time>2026-03-29T15:02:54.905Z</time></trkpt><trkpt lat="44.6505225" lon="7.9794071"><ele>197.0</ele><time>2026-03-29T15:02:56.857Z</time></trkpt><trkpt lat="44.6504081" lon="7.9793934"><ele>197.0</ele><time>2026-03-29T15:02:58.866Z</time></trkpt><trkpt lat="44.6503072" lon="7.9793819"><ele>197.0</ele><time>2026-03-29T15:03:00.899Z</time></trkpt><trkpt lat="44.6502071" lon="7.9793714"><ele>197.0</ele><time>2026-03-29T15:03:02.871Z</time></trkpt><trkpt lat="44.6500925" lon="7.979362"><ele>197.0</ele><time>2026-03-29T15:03:04.882Z</time></trkpt><trkpt lat="44.6499898" lon="7.9793531"><ele>197.0</ele><time>2026-03-29T15:03:06.877Z</time></trkpt><trkpt lat="44.6498927" lon="7.9793553"><ele>197.0</ele><time>2026-03-29T15:03:08.893Z</time></trkpt><trkpt lat="44.6498061" lon="7.9793481"><ele>197.0</ele><time>2026-03-29T15:03:10.865Z</time></trkpt><trkpt lat="44.6496611" lon="7.9793497"><ele>197.0</ele><time>2026-03-29T15:03:13.87Z</time></trkpt><trkpt lat="44.649567" lon="7.9793531"><ele>197.0</ele><time>2026-03-29T15:03:15.889Z</time></trkpt><trkpt lat="44.6494716" lon="7.9793542"><ele>197.0</ele><time>2026-03-29T15:03:17.984Z</time></trkpt><trkpt lat="44.649384" lon="7.9793491"><ele>197.0</ele><time>2026-03-29T15:03:19.865Z</time></trkpt><trkpt lat="44.6492983" lon="7.9793434"><ele>197.0</ele><time>2026-03-29T15:03:21.9Z</time></trkpt><trkpt lat="44.6492204" lon="7.9793238"><ele>197.0</ele><time>2026-03-29T15:03:23.902Z</time></trkpt><trkpt lat="44.6491075" lon="7.9793117"><ele>197.0</ele><time>2026-03-29T15:03:25.848Z</time></trkpt><trkpt lat="44.6490198" lon="7.9792903"><ele>197.0</ele><time>2026-03-29T15:03:27.861Z</time></trkpt><trkpt lat="44.6489354" lon="7.9792595"><ele>197.0</ele><time>2026-03-29T15:03:29.871Z</time></trkpt><trkpt lat="44.6488512" lon="7.9792249"><ele>197.0</ele><time>2026-03-29T15:03:31.904Z</time></trkpt><trkpt lat="44.6487583" lon="7.9791824"><ele>197.0</ele><time>2026-03-29T15:03:33.892Z</time></trkpt><trkpt lat="44.6486555" lon="7.9791375"><ele>197.0</ele><time>2026-03-29T15:03:35.845Z</time></trkpt><trkpt lat="44.6485504" lon="7.9790943"><ele>197.2</ele><time>2026-03-29T15:03:37.861Z</time></trkpt><trkpt lat="44.6484576" lon="7.979053"><ele>197.39999999999998</ele><time>2026-03-29T15:03:39.885Z</time></trkpt><trkpt lat="44.6483737" lon="7.9790164"><ele>197.60000000000002</ele><time>2026-03-29T15:03:41.869Z</time></trkpt><trkpt lat="44.6482745" lon="7.9789934"><ele>197.8</ele><time>2026-03-29T15:03:44.88Z</time></trkpt><trkpt lat="44.6481966" lon="7.9789136"><ele>198.0</ele><time>2026-03-29T15:03:46.878Z</time></trkpt><trkpt lat="44.6481083" lon="7.9789005"><ele>198.0</ele><time>2026-03-29T15:03:48.953Z</time></trkpt><trkpt lat="44.6480144" lon="7.978868"><ele>198.0</ele><time>2026-03-29T15:03:50.897Z</time></trkpt><trkpt lat="44.647916" lon="7.9788259"><ele>198.0</ele><time>2026-03-29T15:03:52.91Z</time></trkpt><trkpt lat="44.6478303" lon="7.9787856"><ele>198.0</ele><time>2026-03-29T15:03:54.87Z</time></trkpt><trkpt lat="44.6477455" lon="7.9787096"><ele>198.0</ele><time>2026-03-29T15:03:57.119Z</time></trkpt><trkpt lat="44.6476641" lon="7.9787163"><ele>199.0</ele><time>2026-03-29T15:04:00.908Z</time></trkpt><trkpt lat="44.6475884" lon="7.9786917"><ele>200.0</ele><time>2026-03-29T15:04:02.881Z</time></trkpt><trkpt lat="44.6474657" lon="7.9786648"><ele>201.0</ele><time>2026-03-29T15:04:05.901Z</time></trkpt><trkpt lat="44.6473838" lon="7.9786151"><ele>202.0</ele><time>2026-03-29T15:04:07.929Z</time></trkpt><trkpt lat="44.6472947" lon="7.978559"><ele>203.0</ele><time>2026-03-29T15:04:09.895Z</time></trkpt><trkpt lat="44.6472046" lon="7.9785003"><ele>203.0</ele><time>2026-03-29T15:04:11.916Z</time></trkpt><trkpt lat="44.6471055" lon="7.9784429"><ele>203.0</ele><time>2026-03-29T15:04:13.896Z</time></trkpt><trkpt lat="44.6470186" lon="7.9783777"><ele>203.0</ele><time>2026-03-29T15:04:15.921Z</time></trkpt><trkpt lat="44.6469483" lon="7.9782723"><ele>203.0</ele><time>2026-03-29T15:04:18.007Z</time></trkpt><trkpt lat="44.6469118" lon="7.97816"><ele>203.0</ele><time>2026-03-29T15:04:19.888Z</time></trkpt><trkpt lat="44.6468784" lon="7.9780189"><ele>202.4</ele><time>2026-03-29T15:04:21.89Z</time></trkpt><trkpt lat="44.6467973" lon="7.9779158"><ele>201.8</ele><time>2026-03-29T15:04:23.886Z</time></trkpt><trkpt lat="44.6466901" lon="7.9778961"><ele>201.2</ele><time>2026-03-29T15:04:25.87Z</time></trkpt><trkpt lat="44.6466032" lon="7.97799"><ele>200.6</ele><time>2026-03-29T15:04:27.844Z</time></trkpt><trkpt lat="44.6465672" lon="7.9780715"><ele>200.0</ele><time>2026-03-29T15:04:28.887Z</time></trkpt><trkpt lat="44.6464956" lon="7.97818"><ele>200.00000000000003</ele><time>2026-03-29T15:04:30.877Z</time></trkpt><trkpt lat="44.6464132" lon="7.9782487"><ele>200.0</ele><time>2026-03-29T15:04:32.882Z</time></trkpt><trkpt lat="44.6463259" lon="7.9782787"><ele>200.0</ele><time>2026-03-29T15:04:34.904Z</time></trkpt><trkpt lat="44.6462427" lon="7.9783021"><ele>200.0</ele><time>2026-03-29T15:04:36.836Z</time></trkpt><trkpt lat="44.646164" lon="7.9783493"><ele>200.00000000000003</ele><time>2026-03-29T15:04:38.88Z</time></trkpt><trkpt lat="44.646105" lon="7.9783892"><ele>200.0</ele><time>2026-03-29T15:04:40.881Z</time></trkpt><trkpt lat="44.6459999" lon="7.9784509"><ele>201.50000000000003</ele><time>2026-03-29T15:04:42.964Z</time></trkpt><trkpt lat="44.6459205" lon="7.9784966"><ele>203.0</ele><time>2026-03-29T15:04:44.923Z</time></trkpt><trkpt lat="44.6458474" lon="7.9785416"><ele>204.5</ele><time>2026-03-29T15:04:46.908Z</time></trkpt><trkpt lat="44.6457612" lon="7.9785881"><ele>206.0</ele><time>2026-03-29T15:04:48.919Z</time></trkpt><trkpt lat="44.6456963" lon="7.978615"><ele>207.50000000000003</ele><time>2026-03-29T15:04:50.93Z</time></trkpt><trkpt lat="44.6456245" lon="7.9786379"><ele>209.0</ele><time>2026-03-29T15:04:52.902Z</time></trkpt><trkpt lat="44.6455342" lon="7.9786836"><ele>209.00000000000003</ele><time>2026-03-29T15:04:54.902Z</time></trkpt><trkpt lat="44.6454537" lon="7.9787448"><ele>209.0</ele><time>2026-03-29T15:04:56.916Z</time></trkpt><trkpt lat="44.6453869" lon="7.9787922"><ele>209.0</ele><time>2026-03-29T15:04:58.9Z</time></trkpt><trkpt lat="44.6452996" lon="7.9788247"><ele>209.0</ele><time>2026-03-29T15:05:01.893Z</time></trkpt><trkpt lat="44.6452329" lon="7.9788664"><ele>209.00000000000003</ele><time>2026-03-29T15:05:04.886Z</time></trkpt><trkpt lat="44.6451418" lon="7.9789038"><ele>209.0</ele><time>2026-03-29T15:05:07.855Z</time></trkpt><trkpt lat="44.6450738" lon="7.9789417"><ele>208.33333333333334</ele><time>2026-03-29T15:05:09.889Z</time></trkpt><trkpt lat="44.6450113" lon="7.9789842"><ele>207.66666666666669</ele><time>2026-03-29T15:05:11.858Z</time></trkpt><trkpt lat="44.6449384" lon="7.9790413"><ele>207.0</ele><time>2026-03-29T15:05:13.817Z</time></trkpt><trkpt lat="44.6448697" lon="7.9790617"><ele>206.33333333333331</ele><time>2026-03-29T15:05:15.89Z</time></trkpt><trkpt lat="44.6447758" lon="7.9790671"><ele>205.66666666666666</ele><time>2026-03-29T15:05:18.89Z</time></trkpt><trkpt lat="44.6447172" lon="7.9791048"><ele>205.0</ele><time>2026-03-29T15:05:20.92Z</time></trkpt><trkpt lat="44.6446522" lon="7.9791566"><ele>206.16666666666666</ele><time>2026-03-29T15:05:23.878Z</time></trkpt><trkpt lat="44.6445772" lon="7.9791959"><ele>207.33333333333331</ele><time>2026-03-29T15:05:27.853Z</time></trkpt><trkpt lat="44.6445039" lon="7.9792413"><ele>208.5</ele><time>2026-03-29T15:05:30.892Z</time></trkpt><trkpt lat="44.6444362" lon="7.9793041"><ele>209.66666666666669</ele><time>2026-03-29T15:05:33.859Z</time></trkpt><trkpt lat="44.6443564" lon="7.9793355"><ele>210.83333333333334</ele><time>2026-03-29T15:05:36.88Z</time></trkpt><trkpt lat="44.6442733" lon="7.9793871"><ele>212.0</ele><time>2026-03-29T15:05:39.897Z</time></trkpt><trkpt lat="44.6442076" lon="7.9794341"><ele>212.00000000000003</ele><time>2026-03-29T15:05:41.883Z</time></trkpt><trkpt lat="44.6441274" lon="7.9794808"><ele>212.0</ele><time>2026-03-29T15:05:43.905Z</time></trkpt><trkpt lat="44.6440593" lon="7.9795412"><ele>212.0</ele><time>2026-03-29T15:05:45.866Z</time></trkpt><trkpt lat="44.643996" lon="7.9796176"><ele>212.0</ele><time>2026-03-29T15:05:47.877Z</time></trkpt><trkpt lat="44.6439403" lon="7.9796855"><ele>212.00000000000003</ele><time>2026-03-29T15:05:49.88Z</time></trkpt><trkpt lat="44.6438898" lon="7.9797484"><ele>212.0</ele><time>2026-03-29T15:05:51.873Z</time></trkpt><trkpt lat="44.6438408" lon="7.9798316"><ele>212.00000000000003</ele><time>2026-03-29T15:05:53.892Z</time></trkpt><trkpt lat="44.6437746" lon="7.9798981"><ele>212.0</ele><time>2026-03-29T15:05:55.862Z</time></trkpt><trkpt lat="44.6437197" lon="7.9799732"><ele>212.0</ele><time>2026-03-29T15:05:57.89Z</time></trkpt><trkpt lat="44.6436424" lon="7.9800496"><ele>212.0</ele><time>2026-03-29T15:05:59.89Z</time></trkpt><trkpt lat="44.6435707" lon="7.9801325"><ele>212.00000000000003</ele><time>2026-03-29T15:06:01.867Z</time></trkpt><trkpt lat="44.6434921" lon="7.9802236"><ele>212.0</ele><time>2026-03-29T15:06:03.864Z</time></trkpt><trkpt lat="44.6434207" lon="7.9803112"><ele>211.50000000000003</ele><time>2026-03-29T15:06:05.884Z</time></trkpt><trkpt lat="44.6433706" lon="7.9803682"><ele>211.0</ele><time>2026-03-29T15:06:07.8Z</time></trkpt><trkpt lat="44.6433138" lon="7.9804439"><ele>210.5</ele><time>2026-03-29T15:06:09.853Z</time></trkpt><trkpt lat="44.6432592" lon="7.9805209"><ele>210.0</ele><time>2026-03-29T15:06:11.88Z</time></trkpt><trkpt lat="44.6432045" lon="7.9805916"><ele>209.50000000000003</ele><time>2026-03-29T15:06:13.92Z</time></trkpt><trkpt lat="44.6431391" lon="7.9806704"><ele>209.0</ele><time>2026-03-29T15:06:15.862Z</time></trkpt><trkpt lat="44.6430727" lon="7.9807355"><ele>209.00000000000003</ele><time>2026-03-29T15:06:17.856Z</time></trkpt><trkpt lat="44.6430115" lon="7.980789"><ele>209.0</ele><time>2026-03-29T15:06:19.909Z</time></trkpt><trkpt lat="44.6429404" lon="7.9808471"><ele>209.0</ele><time>2026-03-29T15:06:21.869Z</time></trkpt><trkpt lat="44.642844" lon="7.9809128"><ele>209.0</ele><time>2026-03-29T15:06:23.868Z</time></trkpt><trkpt lat="44.6427591" lon="7.9809747"><ele>209.00000000000003</ele><time>2026-03-29T15:06:25.88Z</time></trkpt><trkpt lat="44.6426846" lon="7.9810221"><ele>209.0</ele><time>2026-03-29T15:06:27.883Z</time></trkpt><trkpt lat="44.6426157" lon="7.9810686"><ele>209.00000000000003</ele><time>2026-03-29T15:06:30.076Z</time></trkpt><trkpt lat="44.6425528" lon="7.9811276"><ele>209.0</ele><time>2026-03-29T15:07:12.89Z</time></trkpt><trkpt lat="44.6424827" lon="7.9811797"><ele>209.0</ele><time>2026-03-29T15:07:14.876Z</time></trkpt><trkpt lat="44.6424152" lon="7.9812347"><ele>209.0</ele><time>2026-03-29T15:07:16.866Z</time></trkpt><trkpt lat="44.6423472" lon="7.9813122"><ele>209.00000000000003</ele><time>2026-03-29T15:07:18.895Z</time></trkpt><trkpt lat="44.6422796" lon="7.9813973"><ele>209.0</ele><time>2026-03-29T15:07:20.875Z</time></trkpt><trkpt lat="44.6422156" lon="7.9814753"><ele>209.00000000000003</ele><time>2026-03-29T15:07:22.87Z</time></trkpt><trkpt lat="44.6421584" lon="7.9815573"><ele>209.0</ele><time>2026-03-29T15:07:24.865Z</time></trkpt><trkpt lat="44.6420995" lon="7.9816301"><ele>209.0</ele><time>2026-03-29T15:07:26.884Z</time></trkpt><trkpt lat="44.6420413" lon="7.9816916"><ele>209.0</ele><time>2026-03-29T15:07:28.882Z</time></trkpt><trkpt lat="44.6419623" lon="7.9817584"><ele>209.00000000000003</ele><time>2026-03-29T15:07:31.005Z</time></trkpt><trkpt lat="44.6418832" lon="7.9818276"><ele>209.0</ele><time>2026-03-29T15:07:32.872Z</time></trkpt><trkpt lat="44.6418045" lon="7.9818905"><ele>209.00000000000003</ele><time>2026-03-29T15:07:34.855Z</time></trkpt><trkpt lat="44.6417304" lon="7.9819383"><ele>209.0</ele><time>2026-03-29T15:07:36.884Z</time></trkpt><trkpt lat="44.6416671" lon="7.9819774"><ele>209.0</ele><time>2026-03-29T15:07:38.885Z</time></trkpt><trkpt lat="44.6415987" lon="7.9820055"><ele>209.0</ele><time>2026-03-29T15:07:40.871Z</time></trkpt><trkpt lat="44.6415341" lon="7.9820384"><ele>209.00000000000003</ele><time>2026-03-29T15:07:42.886Z</time></trkpt><trkpt lat="44.6414436" lon="7.9820747"><ele>209.0</ele><time>2026-03-29T15:07:45.899Z</time></trkpt><trkpt lat="44.6413737" lon="7.9821015"><ele>209.00000000000003</ele><time>2026-03-29T15:07:47.849Z</time></trkpt><trkpt lat="44.6412874" lon="7.9821451"><ele>209.0</ele><time>2026-03-29T15:07:49.971Z</time></trkpt><trkpt lat="44.6412088" lon="7.9821666"><ele>209.0</ele><time>2026-03-29T15:07:51.862Z</time></trkpt><trkpt lat="44.641131" lon="7.9821928"><ele>209.0</ele><time>2026-03-29T15:07:53.902Z</time></trkpt><trkpt lat="44.6410616" lon="7.982217"><ele>209.00000000000003</ele><time>2026-03-29T15:07:55.88Z</time></trkpt><trkpt lat="44.6409959" lon="7.9822364"><ele>209.0</ele><time>2026-03-29T15:07:57.895Z</time></trkpt><trkpt lat="44.6409294" lon="7.9822691"><ele>208.83333333333334</ele><time>2026-03-29T15:07:59.88Z</time></trkpt><trkpt lat="44.6408494" lon="7.9822907"><ele>208.66666666666669</ele><time>2026-03-29T15:08:01.914Z</time></trkpt><trkpt lat="44.640781" lon="7.9823188"><ele>208.5</ele><time>2026-03-29T15:08:03.906Z</time></trkpt><trkpt lat="44.640698" lon="7.9823587"><ele>208.33333333333331</ele><time>2026-03-29T15:08:06.881Z</time></trkpt><trkpt lat="44.64062" lon="7.9823732"><ele>208.16666666666666</ele><time>2026-03-29T15:08:08.883Z</time></trkpt><trkpt lat="44.6405104" lon="7.9824157"><ele>208.0</ele><time>2026-03-29T15:08:11.886Z</time></trkpt><trkpt lat="44.6404479" lon="7.9824364"><ele>208.0</ele><time>2026-03-29T15:08:13.881Z</time></trkpt><trkpt lat="44.6403643" lon="7.9824647"><ele>208.0</ele><time>2026-03-29T15:08:15.855Z</time></trkpt><trkpt lat="44.6402744" lon="7.9824959"><ele>208.0</ele><time>2026-03-29T15:08:17.869Z</time></trkpt><trkpt lat="44.6401564" lon="7.9825368"><ele>208.0</ele><time>2026-03-29T15:08:20.867Z</time></trkpt><trkpt lat="44.6400556" lon="7.9825706"><ele>208.0</ele><time>2026-03-29T15:08:22.902Z</time></trkpt><trkpt lat="44.6399587" lon="7.982603"><ele>210.0</ele><time>2026-03-29T15:08:24.899Z</time></trkpt><trkpt lat="44.6398727" lon="7.9826223"><ele>212.0</ele><time>2026-03-29T15:08:26.87Z</time></trkpt><trkpt lat="44.6397891" lon="7.9826401"><ele>214.0</ele><time>2026-03-29T15:08:28.885Z</time></trkpt><trkpt lat="44.6396892" lon="7.9826613"><ele>216.0</ele><time>2026-03-29T15:08:30.992Z</time></trkpt><trkpt lat="44.6395907" lon="7.9826735"><ele>218.0</ele><time>2026-03-29T15:08:32.879Z</time></trkpt><trkpt lat="44.6394964" lon="7.9826931"><ele>217.60000000000002</ele><time>2026-03-29T15:08:34.878Z</time></trkpt><trkpt lat="44.6393922" lon="7.9827029"><ele>217.20000000000002</ele><time>2026-03-29T15:08:36.865Z</time></trkpt><trkpt lat="44.63928" lon="7.9827179"><ele>216.8</ele><time>2026-03-29T15:08:38.867Z</time></trkpt><trkpt lat="44.6391758" lon="7.982727"><ele>216.4</ele><time>2026-03-29T15:08:40.884Z</time></trkpt><trkpt lat="44.6390673" lon="7.9827396"><ele>216.0</ele><time>2026-03-29T15:08:42.883Z</time></trkpt><trkpt lat="44.6389542" lon="7.9827491"><ele>216.0</ele><time>2026-03-29T15:08:44.846Z</time></trkpt><trkpt lat="44.6388437" lon="7.9827611"><ele>216.00000000000003</ele><time>2026-03-29T15:08:46.916Z</time></trkpt><trkpt lat="44.6387481" lon="7.9827803"><ele>216.00000000000003</ele><time>2026-03-29T15:08:48.893Z</time></trkpt><trkpt lat="44.6386624" lon="7.982805"><ele>216.0</ele><time>2026-03-29T15:08:50.849Z</time></trkpt><trkpt lat="44.6385793" lon="7.9828515"><ele>216.0</ele><time>2026-03-29T15:08:52.918Z</time></trkpt><trkpt lat="44.638514" lon="7.982909"><ele>215.5</ele><time>2026-03-29T15:08:54.901Z</time></trkpt><trkpt lat="44.6384444" lon="7.9829612"><ele>215.0</ele><time>2026-03-29T15:08:56.906Z</time></trkpt><trkpt lat="44.6383661" lon="7.9829993"><ele>214.5</ele><time>2026-03-29T15:08:58.884Z</time></trkpt><trkpt lat="44.6382903" lon="7.9830397"><ele>214.0</ele><time>2026-03-29T15:09:00.891Z</time></trkpt><trkpt lat="44.6382118" lon="7.9830892"><ele>213.5</ele><time>2026-03-29T15:09:02.917Z</time></trkpt><trkpt lat="44.6381389" lon="7.9831426"><ele>213.0</ele><time>2026-03-29T15:09:04.888Z</time></trkpt><trkpt lat="44.6380612" lon="7.9831911"><ele>213.0</ele><time>2026-03-29T15:09:06.885Z</time></trkpt><trkpt lat="44.6379891" lon="7.9832591"><ele>213.0</ele><time>2026-03-29T15:09:08.883Z</time></trkpt><trkpt lat="44.6379121" lon="7.9833131"><ele>213.0</ele><time>2026-03-29T15:09:10.963Z</time></trkpt><trkpt lat="44.6378359" lon="7.9833617"><ele>213.0</ele><time>2026-03-29T15:09:13.006Z</time></trkpt><trkpt lat="44.6377768" lon="7.9834177"><ele>213.0</ele><time>2026-03-29T15:09:14.847Z</time></trkpt><trkpt lat="44.6377052" lon="7.9834834"><ele>213.0</ele><time>2026-03-29T15:09:16.92Z</time></trkpt><trkpt lat="44.6376338" lon="7.9835247"><ele>212.66666666666666</ele><time>2026-03-29T15:09:18.893Z</time></trkpt><trkpt lat="44.6375695" lon="7.9835695"><ele>212.33333333333331</ele><time>2026-03-29T15:09:20.874Z</time></trkpt><trkpt lat="44.6374839" lon="7.9836198"><ele>212.0</ele><time>2026-03-29T15:09:22.912Z</time></trkpt><trkpt lat="44.6374054" lon="7.9836599"><ele>211.66666666666666</ele><time>2026-03-29T15:09:24.884Z</time></trkpt><trkpt lat="44.6373365" lon="7.9837066"><ele>211.33333333333331</ele><time>2026-03-29T15:09:26.906Z</time></trkpt><trkpt lat="44.6372719" lon="7.9837213"><ele>211.0</ele><time>2026-03-29T15:09:28.896Z</time></trkpt><trkpt lat="44.6371879" lon="7.9837214"><ele>210.99999999999997</ele><time>2026-03-29T15:09:31.891Z</time></trkpt><trkpt lat="44.6370974" lon="7.9837364"><ele>211.0</ele><time>2026-03-29T15:09:34.884Z</time></trkpt><trkpt lat="44.6370248" lon="7.9837695"><ele>211.0</ele><time>2026-03-29T15:09:36.882Z</time></trkpt><trkpt lat="44.6369567" lon="7.9838133"><ele>211.0</ele><time>2026-03-29T15:09:38.916Z</time></trkpt><trkpt lat="44.6368722" lon="7.9838531"><ele>210.99999999999997</ele><time>2026-03-29T15:09:41.856Z</time></trkpt><trkpt lat="44.6368168" lon="7.9838085"><ele>211.0</ele><time>2026-03-29T15:09:43.889Z</time></trkpt><trkpt lat="44.6367862" lon="7.9837285"><ele>212.0</ele><time>2026-03-29T15:09:46.848Z</time></trkpt><trkpt lat="44.6367414" lon="7.983654"><ele>212.0</ele><time>2026-03-29T15:09:50.89Z</time></trkpt><trkpt lat="44.6368016" lon="7.9837014"><ele>212.0</ele><time>2026-03-29T15:10:10.864Z</time></trkpt></trkseg></trk></gpx>